<?xml version="1.0" encoding="UTF-8" standalone="no" ?>
<gpx xmlns="http://www.topografix.com/GPX/1/1" xmlns:xsi="http://www.w3.org/2001/XMLSchema-instance" xsi:schemaLocation="http://www.topografix.com/GPX/1/1 http://www.topografix.com/GPX/1/1/gpx.xsd" version="1.1" creator="VisuGPX - https://www.visugpx.com">
  <metadata>
    <name>CusyHard 2018  7 km sur TraceDeTrail.fr</name>
  </metadata>
  <trk>
    <name><![CDATA[CusyHard 2018  7 km sur TraceDeTrail.fr]]></name>
    <extensions>
      <line xmlns="http://www.topografix.com/GPX/gpx_style/0/2">
        <color>0000FF</color>
        <width>4</width>
      </line>
    </extensions>
    <trkseg>
      <trkpt lat="45.76342" lon="6.02829">
        <ele>548</ele>
        <time>2000-01-01T01:01:39.000Z</time>
      </trkpt>
      <trkpt lat="45.76348" lon="6.02824">
        <ele>545.5</ele>
        <time>2000-01-01T01:01:59.000Z</time>
      </trkpt>
      <trkpt lat="45.76355" lon="6.02825">
        <ele>545.5</ele>
        <time>2000-01-01T01:02:09.000Z</time>
      </trkpt>
      <trkpt lat="45.76363" lon="6.02833">
        <ele>549</ele>
        <time>2000-01-01T01:02:19.000Z</time>
      </trkpt>
      <trkpt lat="45.76369" lon="6.02842">
        <ele>545.2</ele>
        <time>2000-01-01T01:02:29.000Z</time>
      </trkpt>
      <trkpt lat="45.76377" lon="6.0285">
        <ele>545.2</ele>
        <time>2000-01-01T01:02:39.000Z</time>
      </trkpt>
      <trkpt lat="45.76385" lon="6.02858">
        <ele>552</ele>
        <time>2000-01-01T01:02:49.000Z</time>
      </trkpt>
      <trkpt lat="45.76391" lon="6.02868">
        <ele>544.9</ele>
        <time>2000-01-01T01:02:59.000Z</time>
      </trkpt>
      <trkpt lat="45.76396" lon="6.02875">
        <ele>545</ele>
        <time>2000-01-01T01:03:09.000Z</time>
      </trkpt>
      <trkpt lat="45.76401" lon="6.02886">
        <ele>552</ele>
        <time>2000-01-01T01:03:19.000Z</time>
      </trkpt>
      <trkpt lat="45.76405" lon="6.02896">
        <ele>545</ele>
        <time>2000-01-01T01:03:29.000Z</time>
      </trkpt>
      <trkpt lat="45.76414" lon="6.02902">
        <ele>545.4</ele>
        <time>2000-01-01T01:03:39.000Z</time>
      </trkpt>
      <trkpt lat="45.76422" lon="6.02905">
        <ele>549</ele>
        <time>2000-01-01T01:03:49.000Z</time>
      </trkpt>
      <trkpt lat="45.76428" lon="6.02913">
        <ele>545.9</ele>
        <time>2000-01-01T01:03:59.000Z</time>
      </trkpt>
      <trkpt lat="45.76434" lon="6.02921">
        <ele>546.2</ele>
        <time>2000-01-01T01:04:09.000Z</time>
      </trkpt>
      <trkpt lat="45.7644" lon="6.02928">
        <ele>550.5</ele>
        <time>2000-01-01T01:04:19.000Z</time>
      </trkpt>
      <trkpt lat="45.76446" lon="6.02936">
        <ele>546.4</ele>
        <time>2000-01-01T01:04:29.000Z</time>
      </trkpt>
      <trkpt lat="45.76453" lon="6.02946">
        <ele>546.3</ele>
        <time>2000-01-01T01:04:39.000Z</time>
      </trkpt>
      <trkpt lat="45.76458" lon="6.02955">
        <ele>552</ele>
        <time>2000-01-01T01:04:49.000Z</time>
      </trkpt>
      <trkpt lat="45.76463" lon="6.02966">
        <ele>545.9</ele>
        <time>2000-01-01T01:04:59.000Z</time>
      </trkpt>
      <trkpt lat="45.7647" lon="6.02977">
        <ele>552</ele>
        <time>2000-01-01T01:05:09.000Z</time>
      </trkpt>
      <trkpt lat="45.76477" lon="6.02986">
        <ele>546.2</ele>
        <time>2000-01-01T01:05:19.000Z</time>
      </trkpt>
      <trkpt lat="45.76481" lon="6.02998">
        <ele>551.5</ele>
        <time>2000-01-01T01:05:29.000Z</time>
      </trkpt>
      <trkpt lat="45.76484" lon="6.0301">
        <ele>545.8</ele>
        <time>2000-01-01T01:05:39.000Z</time>
      </trkpt>
      <trkpt lat="45.76487" lon="6.03021">
        <ele>545.6</ele>
        <time>2000-01-01T01:05:49.000Z</time>
      </trkpt>
      <trkpt lat="45.76488" lon="6.03032">
        <ele>551</ele>
        <time>2000-01-01T01:05:59.000Z</time>
      </trkpt>
      <trkpt lat="45.7649" lon="6.03044">
        <ele>545.4</ele>
        <time>2000-01-01T01:06:09.000Z</time>
      </trkpt>
      <trkpt lat="45.76493" lon="6.03058">
        <ele>550.5</ele>
        <time>2000-01-01T01:06:19.000Z</time>
      </trkpt>
      <trkpt lat="45.76493" lon="6.03072">
        <ele>545.8</ele>
        <time>2000-01-01T01:06:29.000Z</time>
      </trkpt>
      <trkpt lat="45.76489" lon="6.03084">
        <ele>550</ele>
        <time>2000-01-01T01:06:39.000Z</time>
      </trkpt>
      <trkpt lat="45.76487" lon="6.03098">
        <ele>546.7</ele>
        <time>2000-01-01T01:06:49.000Z</time>
      </trkpt>
      <trkpt lat="45.76485" lon="6.0311">
        <ele>547.1</ele>
        <time>2000-01-01T01:06:59.000Z</time>
      </trkpt>
      <trkpt lat="45.76484" lon="6.03124">
        <ele>550</ele>
        <time>2000-01-01T01:07:09.000Z</time>
      </trkpt>
      <trkpt lat="45.76483" lon="6.03137">
        <ele>548.2</ele>
        <time>2000-01-01T01:07:19.000Z</time>
      </trkpt>
      <trkpt lat="45.76483" lon="6.03149">
        <ele>548.6</ele>
        <time>2000-01-01T01:07:29.000Z</time>
      </trkpt>
      <trkpt lat="45.76485" lon="6.03159">
        <ele>551</ele>
        <time>2000-01-01T01:07:39.000Z</time>
      </trkpt>
      <trkpt lat="45.76493" lon="6.03169">
        <ele>548.6</ele>
        <time>2000-01-01T01:07:49.000Z</time>
      </trkpt>
      <trkpt lat="45.76503" lon="6.03174">
        <ele>550</ele>
        <time>2000-01-01T01:07:59.000Z</time>
      </trkpt>
      <trkpt lat="45.76512" lon="6.03178">
        <ele>547.8</ele>
        <time>2000-01-01T01:08:09.000Z</time>
      </trkpt>
      <trkpt lat="45.76521" lon="6.03181">
        <ele>549</ele>
        <time>2000-01-01T01:08:19.000Z</time>
      </trkpt>
      <trkpt lat="45.7653" lon="6.03186">
        <ele>547</ele>
        <time>2000-01-01T01:08:29.000Z</time>
      </trkpt>
      <trkpt lat="45.76539" lon="6.03191">
        <ele>549</ele>
        <time>2000-01-01T01:08:39.000Z</time>
      </trkpt>
      <trkpt lat="45.76548" lon="6.03195">
        <ele>547</ele>
        <time>2000-01-01T01:08:49.000Z</time>
      </trkpt>
      <trkpt lat="45.76558" lon="6.03201">
        <ele>550</ele>
        <time>2000-01-01T01:08:59.000Z</time>
      </trkpt>
      <trkpt lat="45.76567" lon="6.03205">
        <ele>547.5</ele>
        <time>2000-01-01T01:09:09.000Z</time>
      </trkpt>
      <trkpt lat="45.76576" lon="6.0321">
        <ele>548</ele>
        <time>2000-01-01T01:09:19.000Z</time>
      </trkpt>
      <trkpt lat="45.76584" lon="6.03214">
        <ele>550</ele>
        <time>2000-01-01T01:09:29.000Z</time>
      </trkpt>
      <trkpt lat="45.76593" lon="6.03221">
        <ele>548.9</ele>
        <time>2000-01-01T01:09:39.000Z</time>
      </trkpt>
      <trkpt lat="45.766" lon="6.03228">
        <ele>549.3</ele>
        <time>2000-01-01T01:09:49.000Z</time>
      </trkpt>
      <trkpt lat="45.76606" lon="6.03235">
        <ele>550</ele>
        <time>2000-01-01T01:09:59.000Z</time>
      </trkpt>
      <trkpt lat="45.76612" lon="6.03244">
        <ele>550.5</ele>
        <time>2000-01-01T01:10:09.000Z</time>
      </trkpt>
      <trkpt lat="45.76618" lon="6.03254">
        <ele>550.8</ele>
        <time>2000-01-01T01:10:19.000Z</time>
      </trkpt>
      <trkpt lat="45.76623" lon="6.03264">
        <ele>550</ele>
        <time>2000-01-01T01:10:29.000Z</time>
      </trkpt>
      <trkpt lat="45.76628" lon="6.03274">
        <ele>550.9</ele>
        <time>2000-01-01T01:10:39.000Z</time>
      </trkpt>
      <trkpt lat="45.76633" lon="6.03283">
        <ele>551.2</ele>
        <time>2000-01-01T01:10:49.000Z</time>
      </trkpt>
      <trkpt lat="45.76638" lon="6.03293">
        <ele>550</ele>
        <time>2000-01-01T01:10:59.000Z</time>
      </trkpt>
      <trkpt lat="45.76643" lon="6.03303">
        <ele>551.6</ele>
        <time>2000-01-01T01:11:09.000Z</time>
      </trkpt>
      <trkpt lat="45.76648" lon="6.03313">
        <ele>551.4</ele>
        <time>2000-01-01T01:11:19.000Z</time>
      </trkpt>
      <trkpt lat="45.76654" lon="6.03322">
        <ele>550</ele>
        <time>2000-01-01T01:11:29.000Z</time>
      </trkpt>
      <trkpt lat="45.7666" lon="6.03331">
        <ele>551.2</ele>
        <time>2000-01-01T01:11:39.000Z</time>
      </trkpt>
      <trkpt lat="45.76666" lon="6.0334">
        <ele>551</ele>
        <time>2000-01-01T01:11:49.000Z</time>
      </trkpt>
      <trkpt lat="45.76672" lon="6.0335">
        <ele>550</ele>
        <time>2000-01-01T01:11:59.000Z</time>
      </trkpt>
      <trkpt lat="45.76678" lon="6.03361">
        <ele>550.2</ele>
        <time>2000-01-01T01:12:09.000Z</time>
      </trkpt>
      <trkpt lat="45.76683" lon="6.03372">
        <ele>549.8</ele>
        <time>2000-01-01T01:12:19.000Z</time>
      </trkpt>
      <trkpt lat="45.76689" lon="6.0338">
        <ele>552</ele>
        <time>2000-01-01T01:12:29.000Z</time>
      </trkpt>
      <trkpt lat="45.76695" lon="6.03389">
        <ele>549</ele>
        <time>2000-01-01T01:12:39.000Z</time>
      </trkpt>
      <trkpt lat="45.76702" lon="6.034">
        <ele>553</ele>
        <time>2000-01-01T01:12:49.000Z</time>
      </trkpt>
      <trkpt lat="45.76708" lon="6.03412">
        <ele>548.4</ele>
        <time>2000-01-01T01:12:59.000Z</time>
      </trkpt>
      <trkpt lat="45.76714" lon="6.03423">
        <ele>553</ele>
        <time>2000-01-01T01:13:09.000Z</time>
      </trkpt>
      <trkpt lat="45.7672" lon="6.03433">
        <ele>547.2</ele>
        <time>2000-01-01T01:13:19.000Z</time>
      </trkpt>
      <trkpt lat="45.76726" lon="6.03444">
        <ele>550</ele>
        <time>2000-01-01T01:13:29.000Z</time>
      </trkpt>
      <trkpt lat="45.76731" lon="6.03453">
        <ele>546.1</ele>
        <time>2000-01-01T01:13:39.000Z</time>
      </trkpt>
      <trkpt lat="45.76738" lon="6.03464">
        <ele>546</ele>
        <time>2000-01-01T01:13:49.000Z</time>
      </trkpt>
      <trkpt lat="45.76745" lon="6.03474">
        <ele>544.6</ele>
        <time>2000-01-01T01:13:59.000Z</time>
      </trkpt>
      <trkpt lat="45.76751" lon="6.03485">
        <ele>539</ele>
        <time>2000-01-01T01:14:09.000Z</time>
      </trkpt>
      <trkpt lat="45.76756" lon="6.03496">
        <ele>544.4</ele>
        <time>2000-01-01T01:14:19.000Z</time>
      </trkpt>
      <trkpt lat="45.76762" lon="6.03507">
        <ele>539</ele>
        <time>2000-01-01T01:14:29.000Z</time>
      </trkpt>
      <trkpt lat="45.76767" lon="6.03519">
        <ele>543.8</ele>
        <time>2000-01-01T01:14:39.000Z</time>
      </trkpt>
      <trkpt lat="45.76771" lon="6.03529">
        <ele>543.5</ele>
        <time>2000-01-01T01:14:49.000Z</time>
      </trkpt>
      <trkpt lat="45.76776" lon="6.03539">
        <ele>537.5</ele>
        <time>2000-01-01T01:14:59.000Z</time>
      </trkpt>
      <trkpt lat="45.76782" lon="6.0355">
        <ele>543.5</ele>
        <time>2000-01-01T01:15:09.000Z</time>
      </trkpt>
      <trkpt lat="45.76788" lon="6.0356">
        <ele>538.7</ele>
        <time>2000-01-01T01:15:19.000Z</time>
      </trkpt>
      <trkpt lat="45.76794" lon="6.0357">
        <ele>543.9</ele>
        <time>2000-01-01T01:15:29.000Z</time>
      </trkpt>
      <trkpt lat="45.76801" lon="6.03579">
        <ele>544</ele>
        <time>2000-01-01T01:15:39.000Z</time>
      </trkpt>
      <trkpt lat="45.76808" lon="6.03588">
        <ele>540</ele>
        <time>2000-01-01T01:15:49.000Z</time>
      </trkpt>
      <trkpt lat="45.76815" lon="6.03596">
        <ele>544.3</ele>
        <time>2000-01-01T01:15:59.000Z</time>
      </trkpt>
      <trkpt lat="45.76823" lon="6.03603">
        <ele>544.2</ele>
        <time>2000-01-01T01:16:09.000Z</time>
      </trkpt>
      <trkpt lat="45.76831" lon="6.03612">
        <ele>542</ele>
        <time>2000-01-01T01:16:19.000Z</time>
      </trkpt>
      <trkpt lat="45.76838" lon="6.03621">
        <ele>544.3</ele>
        <time>2000-01-01T01:16:29.000Z</time>
      </trkpt>
      <trkpt lat="45.76845" lon="6.03631">
        <ele>542</ele>
        <time>2000-01-01T01:16:39.000Z</time>
      </trkpt>
      <trkpt lat="45.76851" lon="6.03643">
        <ele>544.9</ele>
        <time>2000-01-01T01:16:49.000Z</time>
      </trkpt>
      <trkpt lat="45.76855" lon="6.03656">
        <ele>541.5</ele>
        <time>2000-01-01T01:16:59.000Z</time>
      </trkpt>
      <trkpt lat="45.7686" lon="6.03669">
        <ele>545.2</ele>
        <time>2000-01-01T01:17:09.000Z</time>
      </trkpt>
      <trkpt lat="45.76864" lon="6.03681">
        <ele>541.7</ele>
        <time>2000-01-01T01:17:19.000Z</time>
      </trkpt>
      <trkpt lat="45.76868" lon="6.03692">
        <ele>545.2</ele>
        <time>2000-01-01T01:17:29.000Z</time>
      </trkpt>
      <trkpt lat="45.76875" lon="6.03703">
        <ele>542</ele>
        <time>2000-01-01T01:17:39.000Z</time>
      </trkpt>
      <trkpt lat="45.76879" lon="6.03715">
        <ele>544.8</ele>
        <time>2000-01-01T01:17:49.000Z</time>
      </trkpt>
      <trkpt lat="45.76885" lon="6.03727">
        <ele>542</ele>
        <time>2000-01-01T01:17:59.000Z</time>
      </trkpt>
      <trkpt lat="45.7689" lon="6.03742">
        <ele>543.2</ele>
        <time>2000-01-01T01:18:09.000Z</time>
      </trkpt>
      <trkpt lat="45.76889" lon="6.03755">
        <ele>541.5</ele>
        <time>2000-01-01T01:18:19.000Z</time>
      </trkpt>
      <trkpt lat="45.76886" lon="6.03766">
        <ele>542.7</ele>
        <time>2000-01-01T01:18:29.000Z</time>
      </trkpt>
      <trkpt lat="45.76879" lon="6.03774">
        <ele>543.2</ele>
        <time>2000-01-01T01:18:39.000Z</time>
      </trkpt>
      <trkpt lat="45.76871" lon="6.03778">
        <ele>541</ele>
        <time>2000-01-01T01:18:49.000Z</time>
      </trkpt>
      <trkpt lat="45.76859" lon="6.03786">
        <ele>544.9</ele>
        <time>2000-01-01T01:18:59.000Z</time>
      </trkpt>
      <trkpt lat="45.76854" lon="6.03795">
        <ele>541</ele>
        <time>2000-01-01T01:19:09.000Z</time>
      </trkpt>
      <trkpt lat="45.7685" lon="6.03808">
        <ele>545.1</ele>
        <time>2000-01-01T01:19:19.000Z</time>
      </trkpt>
      <trkpt lat="45.76846" lon="6.03818">
        <ele>545.2</ele>
        <time>2000-01-01T01:19:29.000Z</time>
      </trkpt>
      <trkpt lat="45.76842" lon="6.03828">
        <ele>542</ele>
        <time>2000-01-01T01:19:39.000Z</time>
      </trkpt>
      <trkpt lat="45.76839" lon="6.03841">
        <ele>545.1</ele>
        <time>2000-01-01T01:19:49.000Z</time>
      </trkpt>
      <trkpt lat="45.76835" lon="6.03853">
        <ele>545.1</ele>
        <time>2000-01-01T01:19:59.000Z</time>
      </trkpt>
      <trkpt lat="45.7683" lon="6.03865">
        <ele>543</ele>
        <time>2000-01-01T01:20:09.000Z</time>
      </trkpt>
      <trkpt lat="45.76827" lon="6.03876">
        <ele>545.1</ele>
        <time>2000-01-01T01:20:19.000Z</time>
      </trkpt>
      <trkpt lat="45.76825" lon="6.03888">
        <ele>544.9</ele>
        <time>2000-01-01T01:20:29.000Z</time>
      </trkpt>
      <trkpt lat="45.7682" lon="6.03895">
        <ele>543</ele>
        <time>2000-01-01T01:20:39.000Z</time>
      </trkpt>
      <trkpt lat="45.76811" lon="6.03898">
        <ele>546.4</ele>
        <time>2000-01-01T01:20:49.000Z</time>
      </trkpt>
      <trkpt lat="45.76802" lon="6.03899">
        <ele>547.4</ele>
        <time>2000-01-01T01:20:59.000Z</time>
      </trkpt>
      <trkpt lat="45.76793" lon="6.03902">
        <ele>542</ele>
        <time>2000-01-01T01:21:09.000Z</time>
      </trkpt>
      <trkpt lat="45.76786" lon="6.03903">
        <ele>549.1</ele>
        <time>2000-01-01T01:21:19.000Z</time>
      </trkpt>
      <trkpt lat="45.76777" lon="6.03904">
        <ele>550.1</ele>
        <time>2000-01-01T01:21:29.000Z</time>
      </trkpt>
      <trkpt lat="45.76763" lon="6.03904">
        <ele>542</ele>
        <time>2000-01-01T01:21:39.000Z</time>
      </trkpt>
      <trkpt lat="45.76753" lon="6.03903">
        <ele>553.1</ele>
        <time>2000-01-01T01:21:49.000Z</time>
      </trkpt>
      <trkpt lat="45.76745" lon="6.03902">
        <ele>554.1</ele>
        <time>2000-01-01T01:21:59.000Z</time>
      </trkpt>
      <trkpt lat="45.76737" lon="6.03902">
        <ele>545.5</ele>
        <time>2000-01-01T01:22:09.000Z</time>
      </trkpt>
      <trkpt lat="45.76725" lon="6.03902">
        <ele>556.2</ele>
        <time>2000-01-01T01:22:19.000Z</time>
      </trkpt>
      <trkpt lat="45.76714" lon="6.03902">
        <ele>549</ele>
        <time>2000-01-01T01:22:29.000Z</time>
      </trkpt>
      <trkpt lat="45.76702" lon="6.03906">
        <ele>558.3</ele>
        <time>2000-01-01T01:22:39.000Z</time>
      </trkpt>
      <trkpt lat="45.76689" lon="6.03911">
        <ele>554</ele>
        <time>2000-01-01T01:22:49.000Z</time>
      </trkpt>
      <trkpt lat="45.76681" lon="6.03914">
        <ele>560.4</ele>
        <time>2000-01-01T01:22:59.000Z</time>
      </trkpt>
      <trkpt lat="45.76673" lon="6.03917">
        <ele>561.3</ele>
        <time>2000-01-01T01:23:09.000Z</time>
      </trkpt>
      <trkpt lat="45.76667" lon="6.0392">
        <ele>555</ele>
        <time>2000-01-01T01:23:19.000Z</time>
      </trkpt>
      <trkpt lat="45.76655" lon="6.03926">
        <ele>562.6</ele>
        <time>2000-01-01T01:23:29.000Z</time>
      </trkpt>
      <trkpt lat="45.76643" lon="6.0393">
        <ele>555</ele>
        <time>2000-01-01T01:23:39.000Z</time>
      </trkpt>
      <trkpt lat="45.7663" lon="6.03933">
        <ele>565</ele>
        <time>2000-01-01T01:23:49.000Z</time>
      </trkpt>
      <trkpt lat="45.76623" lon="6.03936">
        <ele>555</ele>
        <time>2000-01-01T01:23:59.000Z</time>
      </trkpt>
      <trkpt lat="45.76617" lon="6.03942">
        <ele>566.4</ele>
        <time>2000-01-01T01:24:09.000Z</time>
      </trkpt>
      <trkpt lat="45.76608" lon="6.03946">
        <ele>567.4</ele>
        <time>2000-01-01T01:24:19.000Z</time>
      </trkpt>
      <trkpt lat="45.76599" lon="6.0395">
        <ele>559</ele>
        <time>2000-01-01T01:24:29.000Z</time>
      </trkpt>
      <trkpt lat="45.7659" lon="6.03955">
        <ele>569.7</ele>
        <time>2000-01-01T01:24:39.000Z</time>
      </trkpt>
      <trkpt lat="45.7658" lon="6.0396">
        <ele>559</ele>
        <time>2000-01-01T01:24:49.000Z</time>
      </trkpt>
      <trkpt lat="45.76574" lon="6.03964">
        <ele>572</ele>
        <time>2000-01-01T01:24:59.000Z</time>
      </trkpt>
      <trkpt lat="45.76567" lon="6.0397">
        <ele>573.3</ele>
        <time>2000-01-01T01:25:09.000Z</time>
      </trkpt>
      <trkpt lat="45.76557" lon="6.03977">
        <ele>565</ele>
        <time>2000-01-01T01:25:19.000Z</time>
      </trkpt>
      <trkpt lat="45.76549" lon="6.0399">
        <ele>575.9</ele>
        <time>2000-01-01T01:25:29.000Z</time>
      </trkpt>
      <trkpt lat="45.76544" lon="6.04006">
        <ele>572</ele>
        <time>2000-01-01T01:25:39.000Z</time>
      </trkpt>
      <trkpt lat="45.76536" lon="6.04019">
        <ele>578.5</ele>
        <time>2000-01-01T01:25:49.000Z</time>
      </trkpt>
      <trkpt lat="45.76531" lon="6.04027">
        <ele>576</ele>
        <time>2000-01-01T01:25:59.000Z</time>
      </trkpt>
      <trkpt lat="45.76527" lon="6.04038">
        <ele>580.1</ele>
        <time>2000-01-01T01:26:09.000Z</time>
      </trkpt>
      <trkpt lat="45.76519" lon="6.04054">
        <ele>578</ele>
        <time>2000-01-01T01:26:19.000Z</time>
      </trkpt>
      <trkpt lat="45.76513" lon="6.04066">
        <ele>582.1</ele>
        <time>2000-01-01T01:26:29.000Z</time>
      </trkpt>
      <trkpt lat="45.7651" lon="6.04082">
        <ele>581</ele>
        <time>2000-01-01T01:26:39.000Z</time>
      </trkpt>
      <trkpt lat="45.76507" lon="6.04102">
        <ele>582.3</ele>
        <time>2000-01-01T01:26:49.000Z</time>
      </trkpt>
      <trkpt lat="45.76501" lon="6.04115">
        <ele>583</ele>
        <time>2000-01-01T01:26:59.000Z</time>
      </trkpt>
      <trkpt lat="45.76495" lon="6.0412">
        <ele>583.7</ele>
        <time>2000-01-01T01:27:09.000Z</time>
      </trkpt>
      <trkpt lat="45.76487" lon="6.04123">
        <ele>584.9</ele>
        <time>2000-01-01T01:27:19.000Z</time>
      </trkpt>
      <trkpt lat="45.76479" lon="6.0412">
        <ele>587</ele>
        <time>2000-01-01T01:27:29.000Z</time>
      </trkpt>
      <trkpt lat="45.76464" lon="6.04112">
        <ele>588.2</ele>
        <time>2000-01-01T01:27:39.000Z</time>
      </trkpt>
      <trkpt lat="45.76459" lon="6.04108">
        <ele>589</ele>
        <time>2000-01-01T01:27:49.000Z</time>
      </trkpt>
      <trkpt lat="45.76452" lon="6.04105">
        <ele>589.9</ele>
        <time>2000-01-01T01:27:59.000Z</time>
      </trkpt>
      <trkpt lat="45.76445" lon="6.04102">
        <ele>590.9</ele>
        <time>2000-01-01T01:28:09.000Z</time>
      </trkpt>
      <trkpt lat="45.76435" lon="6.04093">
        <ele>589</ele>
        <time>2000-01-01T01:28:19.000Z</time>
      </trkpt>
      <trkpt lat="45.7643" lon="6.0409">
        <ele>593.6</ele>
        <time>2000-01-01T01:28:29.000Z</time>
      </trkpt>
      <trkpt lat="45.76424" lon="6.04084">
        <ele>594.7</ele>
        <time>2000-01-01T01:28:39.000Z</time>
      </trkpt>
      <trkpt lat="45.7642" lon="6.04079">
        <ele>595.4</ele>
        <time>2000-01-01T01:28:49.000Z</time>
      </trkpt>
      <trkpt lat="45.76417" lon="6.04076">
        <ele>595</ele>
        <time>2000-01-01T01:28:59.000Z</time>
      </trkpt>
      <trkpt lat="45.76412" lon="6.04073">
        <ele>597</ele>
        <time>2000-01-01T01:29:09.000Z</time>
      </trkpt>
      <trkpt lat="45.76405" lon="6.04069">
        <ele>598.5</ele>
        <time>2000-01-01T01:29:19.000Z</time>
      </trkpt>
      <trkpt lat="45.764" lon="6.04071">
        <ele>599.6</ele>
        <time>2000-01-01T01:29:29.000Z</time>
      </trkpt>
      <trkpt lat="45.76397" lon="6.04062">
        <ele>604</ele>
        <time>2000-01-01T01:29:39.000Z</time>
      </trkpt>
      <trkpt lat="45.76389" lon="6.04048">
        <ele>602</ele>
        <time>2000-01-01T01:29:49.000Z</time>
      </trkpt>
      <trkpt lat="45.76379" lon="6.04038">
        <ele>608.5</ele>
        <time>2000-01-01T01:29:59.000Z</time>
      </trkpt>
      <trkpt lat="45.76373" lon="6.04031">
        <ele>606.6</ele>
        <time>2000-01-01T01:30:09.000Z</time>
      </trkpt>
      <trkpt lat="45.76374" lon="6.04026">
        <ele>606.3</ele>
        <time>2000-01-01T01:30:19.000Z</time>
      </trkpt>
      <trkpt lat="45.76376" lon="6.04024">
        <ele>605.7</ele>
        <time>2000-01-01T01:30:29.000Z</time>
      </trkpt>
      <trkpt lat="45.76372" lon="6.04024">
        <ele>606.9</ele>
        <time>2000-01-01T01:30:39.000Z</time>
      </trkpt>
      <trkpt lat="45.76366" lon="6.04019">
        <ele>613</ele>
        <time>2000-01-01T01:30:49.000Z</time>
      </trkpt>
      <trkpt lat="45.7636" lon="6.04015">
        <ele>610.4</ele>
        <time>2000-01-01T01:30:59.000Z</time>
      </trkpt>
      <trkpt lat="45.76359" lon="6.0401">
        <ele>610.7</ele>
        <time>2000-01-01T01:31:09.000Z</time>
      </trkpt>
      <trkpt lat="45.76361" lon="6.03997">
        <ele>621</ele>
        <time>2000-01-01T01:31:19.000Z</time>
      </trkpt>
      <trkpt lat="45.76358" lon="6.0398">
        <ele>611.8</ele>
        <time>2000-01-01T01:31:29.000Z</time>
      </trkpt>
      <trkpt lat="45.76352" lon="6.03961">
        <ele>621</ele>
        <time>2000-01-01T01:31:39.000Z</time>
      </trkpt>
      <trkpt lat="45.76348" lon="6.03953">
        <ele>615.6</ele>
        <time>2000-01-01T01:31:49.000Z</time>
      </trkpt>
      <trkpt lat="45.7634" lon="6.03945">
        <ele>618.6</ele>
        <time>2000-01-01T01:31:59.000Z</time>
      </trkpt>
      <trkpt lat="45.76332" lon="6.03938">
        <ele>619.5</ele>
        <time>2000-01-01T01:32:09.000Z</time>
      </trkpt>
      <trkpt lat="45.76324" lon="6.03938">
        <ele>621.6</ele>
        <time>2000-01-01T01:32:19.000Z</time>
      </trkpt>
      <trkpt lat="45.76316" lon="6.03942">
        <ele>622.2</ele>
        <time>2000-01-01T01:32:29.000Z</time>
      </trkpt>
      <trkpt lat="45.76308" lon="6.03945">
        <ele>619.2</ele>
        <time>2000-01-01T01:32:39.000Z</time>
      </trkpt>
      <trkpt lat="45.76296" lon="6.03948">
        <ele>623.3</ele>
        <time>2000-01-01T01:32:49.000Z</time>
      </trkpt>
      <trkpt lat="45.76286" lon="6.03954">
        <ele>620.1</ele>
        <time>2000-01-01T01:32:59.000Z</time>
      </trkpt>
      <trkpt lat="45.76274" lon="6.03956">
        <ele>624.3</ele>
        <time>2000-01-01T01:33:09.000Z</time>
      </trkpt>
      <trkpt lat="45.76265" lon="6.03957">
        <ele>621</ele>
        <time>2000-01-01T01:33:19.000Z</time>
      </trkpt>
      <trkpt lat="45.76259" lon="6.03957">
        <ele>625.7</ele>
        <time>2000-01-01T01:33:29.000Z</time>
      </trkpt>
      <trkpt lat="45.76252" lon="6.03956">
        <ele>626.2</ele>
        <time>2000-01-01T01:33:39.000Z</time>
      </trkpt>
      <trkpt lat="45.76244" lon="6.03956">
        <ele>621</ele>
        <time>2000-01-01T01:33:49.000Z</time>
      </trkpt>
      <trkpt lat="45.76236" lon="6.03954">
        <ele>627.4</ele>
        <time>2000-01-01T01:33:59.000Z</time>
      </trkpt>
      <trkpt lat="45.76221" lon="6.03954">
        <ele>627</ele>
        <time>2000-01-01T01:34:09.000Z</time>
      </trkpt>
      <trkpt lat="45.76214" lon="6.03959">
        <ele>629.1</ele>
        <time>2000-01-01T01:34:19.000Z</time>
      </trkpt>
      <trkpt lat="45.7621" lon="6.03964">
        <ele>629.6</ele>
        <time>2000-01-01T01:34:29.000Z</time>
      </trkpt>
      <trkpt lat="45.76206" lon="6.03969">
        <ele>632</ele>
        <time>2000-01-01T01:34:39.000Z</time>
      </trkpt>
      <trkpt lat="45.76192" lon="6.03977">
        <ele>631.2</ele>
        <time>2000-01-01T01:34:49.000Z</time>
      </trkpt>
      <trkpt lat="45.76188" lon="6.03983">
        <ele>633</ele>
        <time>2000-01-01T01:34:59.000Z</time>
      </trkpt>
      <trkpt lat="45.76176" lon="6.03994">
        <ele>632.3</ele>
        <time>2000-01-01T01:35:09.000Z</time>
      </trkpt>
      <trkpt lat="45.7617" lon="6.03999">
        <ele>633</ele>
        <time>2000-01-01T01:35:19.000Z</time>
      </trkpt>
      <trkpt lat="45.76157" lon="6.04008">
        <ele>634.4</ele>
        <time>2000-01-01T01:35:29.000Z</time>
      </trkpt>
      <trkpt lat="45.76146" lon="6.04015">
        <ele>633</ele>
        <time>2000-01-01T01:35:39.000Z</time>
      </trkpt>
      <trkpt lat="45.76134" lon="6.0402">
        <ele>637.7</ele>
        <time>2000-01-01T01:35:49.000Z</time>
      </trkpt>
      <trkpt lat="45.76129" lon="6.0402">
        <ele>638.4</ele>
        <time>2000-01-01T01:35:59.000Z</time>
      </trkpt>
      <trkpt lat="45.76115" lon="6.04019">
        <ele>633</ele>
        <time>2000-01-01T01:36:09.000Z</time>
      </trkpt>
      <trkpt lat="45.76103" lon="6.04016">
        <ele>642.2</ele>
        <time>2000-01-01T01:36:19.000Z</time>
      </trkpt>
      <trkpt lat="45.76098" lon="6.04016">
        <ele>642.9</ele>
        <time>2000-01-01T01:36:29.000Z</time>
      </trkpt>
      <trkpt lat="45.76094" lon="6.04016">
        <ele>636</ele>
        <time>2000-01-01T01:36:39.000Z</time>
      </trkpt>
      <trkpt lat="45.76087" lon="6.04021">
        <ele>644.5</ele>
        <time>2000-01-01T01:36:49.000Z</time>
      </trkpt>
      <trkpt lat="45.76082" lon="6.04022">
        <ele>645.2</ele>
        <time>2000-01-01T01:36:59.000Z</time>
      </trkpt>
      <trkpt lat="45.76076" lon="6.04022">
        <ele>646.1</ele>
        <time>2000-01-01T01:37:09.000Z</time>
      </trkpt>
      <trkpt lat="45.7607" lon="6.04017">
        <ele>641</ele>
        <time>2000-01-01T01:37:19.000Z</time>
      </trkpt>
      <trkpt lat="45.76063" lon="6.04012">
        <ele>647.9</ele>
        <time>2000-01-01T01:37:29.000Z</time>
      </trkpt>
      <trkpt lat="45.76059" lon="6.04003">
        <ele>648.5</ele>
        <time>2000-01-01T01:37:39.000Z</time>
      </trkpt>
      <trkpt lat="45.76051" lon="6.03986">
        <ele>641</ele>
        <time>2000-01-01T01:37:49.000Z</time>
      </trkpt>
      <trkpt lat="45.76043" lon="6.03972">
        <ele>650.8</ele>
        <time>2000-01-01T01:37:59.000Z</time>
      </trkpt>
      <trkpt lat="45.76037" lon="6.03965">
        <ele>646</ele>
        <time>2000-01-01T01:38:09.000Z</time>
      </trkpt>
      <trkpt lat="45.76031" lon="6.03958">
        <ele>652</ele>
        <time>2000-01-01T01:38:19.000Z</time>
      </trkpt>
      <trkpt lat="45.76025" lon="6.03952">
        <ele>652.6</ele>
        <time>2000-01-01T01:38:29.000Z</time>
      </trkpt>
      <trkpt lat="45.76019" lon="6.03946">
        <ele>648</ele>
        <time>2000-01-01T01:38:39.000Z</time>
      </trkpt>
      <trkpt lat="45.76013" lon="6.03941">
        <ele>653.3</ele>
        <time>2000-01-01T01:38:49.000Z</time>
      </trkpt>
      <trkpt lat="45.76007" lon="6.03935">
        <ele>653.6</ele>
        <time>2000-01-01T01:38:59.000Z</time>
      </trkpt>
      <trkpt lat="45.76" lon="6.03929">
        <ele>648</ele>
        <time>2000-01-01T01:39:09.000Z</time>
      </trkpt>
      <trkpt lat="45.75993" lon="6.03922">
        <ele>654.1</ele>
        <time>2000-01-01T01:39:19.000Z</time>
      </trkpt>
      <trkpt lat="45.75981" lon="6.03911">
        <ele>648</ele>
        <time>2000-01-01T01:39:29.000Z</time>
      </trkpt>
      <trkpt lat="45.75975" lon="6.03905">
        <ele>655.3</ele>
        <time>2000-01-01T01:39:39.000Z</time>
      </trkpt>
      <trkpt lat="45.75969" lon="6.039">
        <ele>655.8</ele>
        <time>2000-01-01T01:39:49.000Z</time>
      </trkpt>
      <trkpt lat="45.75962" lon="6.03894">
        <ele>653</ele>
        <time>2000-01-01T01:39:59.000Z</time>
      </trkpt>
      <trkpt lat="45.75956" lon="6.03886">
        <ele>656.6</ele>
        <time>2000-01-01T01:40:09.000Z</time>
      </trkpt>
      <trkpt lat="45.75951" lon="6.0387">
        <ele>653</ele>
        <time>2000-01-01T01:40:19.000Z</time>
      </trkpt>
      <trkpt lat="45.7595" lon="6.03858">
        <ele>656.3</ele>
        <time>2000-01-01T01:40:29.000Z</time>
      </trkpt>
      <trkpt lat="45.75954" lon="6.03843">
        <ele>653</ele>
        <time>2000-01-01T01:40:39.000Z</time>
      </trkpt>
      <trkpt lat="45.75962" lon="6.03831">
        <ele>654.1</ele>
        <time>2000-01-01T01:40:49.000Z</time>
      </trkpt>
      <trkpt lat="45.75973" lon="6.03825">
        <ele>653</ele>
        <time>2000-01-01T01:40:59.000Z</time>
      </trkpt>
      <trkpt lat="45.75986" lon="6.03823">
        <ele>651.8</ele>
        <time>2000-01-01T01:41:09.000Z</time>
      </trkpt>
      <trkpt lat="45.75992" lon="6.0382">
        <ele>651.2</ele>
        <time>2000-01-01T01:41:19.000Z</time>
      </trkpt>
      <trkpt lat="45.75999" lon="6.03808">
        <ele>651</ele>
        <time>2000-01-01T01:41:29.000Z</time>
      </trkpt>
      <trkpt lat="45.75999" lon="6.03796">
        <ele>649.8</ele>
        <time>2000-01-01T01:41:39.000Z</time>
      </trkpt>
      <trkpt lat="45.75997" lon="6.03784">
        <ele>649.5</ele>
        <time>2000-01-01T01:41:49.000Z</time>
      </trkpt>
      <trkpt lat="45.75994" lon="6.03773">
        <ele>649</ele>
        <time>2000-01-01T01:41:59.000Z</time>
      </trkpt>
      <trkpt lat="45.75993" lon="6.03761">
        <ele>649.8</ele>
        <time>2000-01-01T01:42:09.000Z</time>
      </trkpt>
      <trkpt lat="45.75991" lon="6.03749">
        <ele>649.9</ele>
        <time>2000-01-01T01:42:19.000Z</time>
      </trkpt>
      <trkpt lat="45.7599" lon="6.03736">
        <ele>647</ele>
        <time>2000-01-01T01:42:29.000Z</time>
      </trkpt>
      <trkpt lat="45.75988" lon="6.03723">
        <ele>649.3</ele>
        <time>2000-01-01T01:42:39.000Z</time>
      </trkpt>
      <trkpt lat="45.75985" lon="6.03712">
        <ele>649.6</ele>
        <time>2000-01-01T01:42:49.000Z</time>
      </trkpt>
      <trkpt lat="45.75981" lon="6.03702">
        <ele>646</ele>
        <time>2000-01-01T01:42:59.000Z</time>
      </trkpt>
      <trkpt lat="45.75978" lon="6.0369">
        <ele>650.4</ele>
        <time>2000-01-01T01:43:09.000Z</time>
      </trkpt>
      <trkpt lat="45.75975" lon="6.03678">
        <ele>650.7</ele>
        <time>2000-01-01T01:43:19.000Z</time>
      </trkpt>
      <trkpt lat="45.7597" lon="6.03668">
        <ele>643</ele>
        <time>2000-01-01T01:43:29.000Z</time>
      </trkpt>
      <trkpt lat="45.75965" lon="6.0366">
        <ele>651.3</ele>
        <time>2000-01-01T01:43:39.000Z</time>
      </trkpt>
      <trkpt lat="45.75961" lon="6.0365">
        <ele>651.2</ele>
        <time>2000-01-01T01:43:49.000Z</time>
      </trkpt>
      <trkpt lat="45.75956" lon="6.03639">
        <ele>642.5</ele>
        <time>2000-01-01T01:43:59.000Z</time>
      </trkpt>
      <trkpt lat="45.75952" lon="6.03629">
        <ele>651</ele>
        <time>2000-01-01T01:44:09.000Z</time>
      </trkpt>
      <trkpt lat="45.75948" lon="6.03617">
        <ele>650.9</ele>
        <time>2000-01-01T01:44:19.000Z</time>
      </trkpt>
      <trkpt lat="45.75942" lon="6.03608">
        <ele>642</ele>
        <time>2000-01-01T01:44:29.000Z</time>
      </trkpt>
      <trkpt lat="45.75937" lon="6.03599">
        <ele>651.4</ele>
        <time>2000-01-01T01:44:39.000Z</time>
      </trkpt>
      <trkpt lat="45.75931" lon="6.03588">
        <ele>651.6</ele>
        <time>2000-01-01T01:44:49.000Z</time>
      </trkpt>
      <trkpt lat="45.75927" lon="6.03578">
        <ele>642</ele>
        <time>2000-01-01T01:44:59.000Z</time>
      </trkpt>
      <trkpt lat="45.75923" lon="6.03567">
        <ele>652.3</ele>
        <time>2000-01-01T01:45:09.000Z</time>
      </trkpt>
      <trkpt lat="45.75925" lon="6.03559">
        <ele>652.1</ele>
        <time>2000-01-01T01:45:19.000Z</time>
      </trkpt>
      <trkpt lat="45.75932" lon="6.03555">
        <ele>642</ele>
        <time>2000-01-01T01:45:29.000Z</time>
      </trkpt>
      <trkpt lat="45.75941" lon="6.03557">
        <ele>650.4</ele>
        <time>2000-01-01T01:45:39.000Z</time>
      </trkpt>
      <trkpt lat="45.75951" lon="6.03557">
        <ele>649.3</ele>
        <time>2000-01-01T01:45:49.000Z</time>
      </trkpt>
      <trkpt lat="45.75959" lon="6.03559">
        <ele>639</ele>
        <time>2000-01-01T01:45:59.000Z</time>
      </trkpt>
      <trkpt lat="45.75967" lon="6.03558">
        <ele>647.6</ele>
        <time>2000-01-01T01:46:09.000Z</time>
      </trkpt>
      <trkpt lat="45.75976" lon="6.03556">
        <ele>646.5</ele>
        <time>2000-01-01T01:46:19.000Z</time>
      </trkpt>
      <trkpt lat="45.75986" lon="6.03553">
        <ele>636</ele>
        <time>2000-01-01T01:46:29.000Z</time>
      </trkpt>
      <trkpt lat="45.75994" lon="6.0355">
        <ele>643.7</ele>
        <time>2000-01-01T01:46:39.000Z</time>
      </trkpt>
      <trkpt lat="45.76002" lon="6.03549">
        <ele>642.5</ele>
        <time>2000-01-01T01:46:49.000Z</time>
      </trkpt>
      <trkpt lat="45.76011" lon="6.03546">
        <ele>636</ele>
        <time>2000-01-01T01:46:59.000Z</time>
      </trkpt>
      <trkpt lat="45.7602" lon="6.03544">
        <ele>639.7</ele>
        <time>2000-01-01T01:47:09.000Z</time>
      </trkpt>
      <trkpt lat="45.76028" lon="6.03539">
        <ele>638.4</ele>
        <time>2000-01-01T01:47:19.000Z</time>
      </trkpt>
      <trkpt lat="45.76036" lon="6.03533">
        <ele>633</ele>
        <time>2000-01-01T01:47:29.000Z</time>
      </trkpt>
      <trkpt lat="45.76043" lon="6.03526">
        <ele>635.7</ele>
        <time>2000-01-01T01:47:39.000Z</time>
      </trkpt>
      <trkpt lat="45.76048" lon="6.03519">
        <ele>634.5</ele>
        <time>2000-01-01T01:47:49.000Z</time>
      </trkpt>
      <trkpt lat="45.76054" lon="6.03509">
        <ele>629</ele>
        <time>2000-01-01T01:47:59.000Z</time>
      </trkpt>
      <trkpt lat="45.76059" lon="6.035">
        <ele>631.6</ele>
        <time>2000-01-01T01:48:09.000Z</time>
      </trkpt>
      <trkpt lat="45.76065" lon="6.03489">
        <ele>630.7</ele>
        <time>2000-01-01T01:48:19.000Z</time>
      </trkpt>
      <trkpt lat="45.7607" lon="6.03479">
        <ele>627</ele>
        <time>2000-01-01T01:48:29.000Z</time>
      </trkpt>
      <trkpt lat="45.76075" lon="6.03468">
        <ele>629.4</ele>
        <time>2000-01-01T01:48:39.000Z</time>
      </trkpt>
      <trkpt lat="45.76081" lon="6.03458">
        <ele>628.7</ele>
        <time>2000-01-01T01:48:49.000Z</time>
      </trkpt>
      <trkpt lat="45.76086" lon="6.03449">
        <ele>626</ele>
        <time>2000-01-01T01:48:59.000Z</time>
      </trkpt>
      <trkpt lat="45.76092" lon="6.03441">
        <ele>626.8</ele>
        <time>2000-01-01T01:49:09.000Z</time>
      </trkpt>
      <trkpt lat="45.76099" lon="6.03433">
        <ele>625.5</ele>
        <time>2000-01-01T01:49:19.000Z</time>
      </trkpt>
      <trkpt lat="45.76106" lon="6.03427">
        <ele>623</ele>
        <time>2000-01-01T01:49:29.000Z</time>
      </trkpt>
      <trkpt lat="45.76114" lon="6.03417">
        <ele>622.6</ele>
        <time>2000-01-01T01:49:39.000Z</time>
      </trkpt>
      <trkpt lat="45.76123" lon="6.03408">
        <ele>619</ele>
        <time>2000-01-01T01:49:49.000Z</time>
      </trkpt>
      <trkpt lat="45.76131" lon="6.03401">
        <ele>620</ele>
        <time>2000-01-01T01:49:59.000Z</time>
      </trkpt>
      <trkpt lat="45.7614" lon="6.03392">
        <ele>619</ele>
        <time>2000-01-01T01:50:09.000Z</time>
      </trkpt>
      <trkpt lat="45.76149" lon="6.03383">
        <ele>617.3</ele>
        <time>2000-01-01T01:50:19.000Z</time>
      </trkpt>
      <trkpt lat="45.76157" lon="6.03375">
        <ele>614</ele>
        <time>2000-01-01T01:50:29.000Z</time>
      </trkpt>
      <trkpt lat="45.76165" lon="6.03366">
        <ele>614.4</ele>
        <time>2000-01-01T01:50:39.000Z</time>
      </trkpt>
      <trkpt lat="45.76172" lon="6.03354">
        <ele>611</ele>
        <time>2000-01-01T01:50:49.000Z</time>
      </trkpt>
      <trkpt lat="45.76178" lon="6.03336">
        <ele>611.5</ele>
        <time>2000-01-01T01:50:59.000Z</time>
      </trkpt>
      <trkpt lat="45.76185" lon="6.0332">
        <ele>611</ele>
        <time>2000-01-01T01:51:09.000Z</time>
      </trkpt>
      <trkpt lat="45.76181" lon="6.03308">
        <ele>610</ele>
        <time>2000-01-01T01:51:19.000Z</time>
      </trkpt>
      <trkpt lat="45.76173" lon="6.03305">
        <ele>611.1</ele>
        <time>2000-01-01T01:51:29.000Z</time>
      </trkpt>
      <trkpt lat="45.76166" lon="6.03301">
        <ele>609</ele>
        <time>2000-01-01T01:51:39.000Z</time>
      </trkpt>
      <trkpt lat="45.76157" lon="6.03296">
        <ele>613.7</ele>
        <time>2000-01-01T01:51:49.000Z</time>
      </trkpt>
      <trkpt lat="45.76149" lon="6.03293">
        <ele>615.2</ele>
        <time>2000-01-01T01:51:59.000Z</time>
      </trkpt>
      <trkpt lat="45.76141" lon="6.0329">
        <ele>611.5</ele>
        <time>2000-01-01T01:52:09.000Z</time>
      </trkpt>
      <trkpt lat="45.76134" lon="6.03286">
        <ele>617.8</ele>
        <time>2000-01-01T01:52:19.000Z</time>
      </trkpt>
      <trkpt lat="45.76125" lon="6.03282">
        <ele>619.4</ele>
        <time>2000-01-01T01:52:29.000Z</time>
      </trkpt>
      <trkpt lat="45.76115" lon="6.03277">
        <ele>614</ele>
        <time>2000-01-01T01:52:39.000Z</time>
      </trkpt>
      <trkpt lat="45.76107" lon="6.03272">
        <ele>622.3</ele>
        <time>2000-01-01T01:52:49.000Z</time>
      </trkpt>
      <trkpt lat="45.76094" lon="6.03262">
        <ele>615</ele>
        <time>2000-01-01T01:52:59.000Z</time>
      </trkpt>
      <trkpt lat="45.76088" lon="6.03257">
        <ele>624.4</ele>
        <time>2000-01-01T01:53:09.000Z</time>
      </trkpt>
      <trkpt lat="45.76081" lon="6.03252">
        <ele>625.2</ele>
        <time>2000-01-01T01:53:19.000Z</time>
      </trkpt>
      <trkpt lat="45.76075" lon="6.03245">
        <ele>616</ele>
        <time>2000-01-01T01:53:29.000Z</time>
      </trkpt>
      <trkpt lat="45.76063" lon="6.03234">
        <ele>626.3</ele>
        <time>2000-01-01T01:53:39.000Z</time>
      </trkpt>
      <trkpt lat="45.76051" lon="6.03223">
        <ele>616</ele>
        <time>2000-01-01T01:53:49.000Z</time>
      </trkpt>
      <trkpt lat="45.76046" lon="6.03219">
        <ele>627.6</ele>
        <time>2000-01-01T01:53:59.000Z</time>
      </trkpt>
      <trkpt lat="45.76039" lon="6.03213">
        <ele>628.1</ele>
        <time>2000-01-01T01:54:09.000Z</time>
      </trkpt>
      <trkpt lat="45.76033" lon="6.03207">
        <ele>621</ele>
        <time>2000-01-01T01:54:19.000Z</time>
      </trkpt>
      <trkpt lat="45.76026" lon="6.03203">
        <ele>629.1</ele>
        <time>2000-01-01T01:54:29.000Z</time>
      </trkpt>
      <trkpt lat="45.76018" lon="6.03197">
        <ele>629.4</ele>
        <time>2000-01-01T01:54:39.000Z</time>
      </trkpt>
      <trkpt lat="45.76011" lon="6.03192">
        <ele>628</ele>
        <time>2000-01-01T01:54:49.000Z</time>
      </trkpt>
      <trkpt lat="45.75999" lon="6.03181">
        <ele>630.5</ele>
        <time>2000-01-01T01:54:59.000Z</time>
      </trkpt>
      <trkpt lat="45.75992" lon="6.03175">
        <ele>630</ele>
        <time>2000-01-01T01:55:09.000Z</time>
      </trkpt>
      <trkpt lat="45.75986" lon="6.03169">
        <ele>631.4</ele>
        <time>2000-01-01T01:55:19.000Z</time>
      </trkpt>
      <trkpt lat="45.7598" lon="6.03162">
        <ele>631.7</ele>
        <time>2000-01-01T01:55:29.000Z</time>
      </trkpt>
      <trkpt lat="45.7597" lon="6.03149">
        <ele>632</ele>
        <time>2000-01-01T01:55:39.000Z</time>
      </trkpt>
      <trkpt lat="45.75964" lon="6.03143">
        <ele>632.5</ele>
        <time>2000-01-01T01:55:49.000Z</time>
      </trkpt>
      <trkpt lat="45.75959" lon="6.03137">
        <ele>633</ele>
        <time>2000-01-01T01:55:59.000Z</time>
      </trkpt>
      <trkpt lat="45.75951" lon="6.03134">
        <ele>632.5</ele>
        <time>2000-01-01T01:56:09.000Z</time>
      </trkpt>
      <trkpt lat="45.75935" lon="6.03133">
        <ele>634.7</ele>
        <time>2000-01-01T01:56:19.000Z</time>
      </trkpt>
      <trkpt lat="45.75928" lon="6.03133">
        <ele>631.7</ele>
        <time>2000-01-01T01:56:29.000Z</time>
      </trkpt>
      <trkpt lat="45.75914" lon="6.03135">
        <ele>636.3</ele>
        <time>2000-01-01T01:56:39.000Z</time>
      </trkpt>
      <trkpt lat="45.75901" lon="6.03137">
        <ele>631</ele>
        <time>2000-01-01T01:56:49.000Z</time>
      </trkpt>
      <trkpt lat="45.75895" lon="6.03139">
        <ele>638.3</ele>
        <time>2000-01-01T01:56:59.000Z</time>
      </trkpt>
      <trkpt lat="45.75887" lon="6.03141">
        <ele>639.1</ele>
        <time>2000-01-01T01:57:09.000Z</time>
      </trkpt>
      <trkpt lat="45.75879" lon="6.03142">
        <ele>631</ele>
        <time>2000-01-01T01:57:19.000Z</time>
      </trkpt>
      <trkpt lat="45.75871" lon="6.03143">
        <ele>640.4</ele>
        <time>2000-01-01T01:57:29.000Z</time>
      </trkpt>
      <trkpt lat="45.75856" lon="6.03143">
        <ele>631</ele>
        <time>2000-01-01T01:57:39.000Z</time>
      </trkpt>
      <trkpt lat="45.75844" lon="6.03142">
        <ele>643</ele>
        <time>2000-01-01T01:57:49.000Z</time>
      </trkpt>
      <trkpt lat="45.75832" lon="6.03142">
        <ele>634</ele>
        <time>2000-01-01T01:57:59.000Z</time>
      </trkpt>
      <trkpt lat="45.75825" lon="6.0314">
        <ele>644.9</ele>
        <time>2000-01-01T01:58:09.000Z</time>
      </trkpt>
      <trkpt lat="45.75816" lon="6.03138">
        <ele>645.9</ele>
        <time>2000-01-01T01:58:19.000Z</time>
      </trkpt>
      <trkpt lat="45.75808" lon="6.03136">
        <ele>638</ele>
        <time>2000-01-01T01:58:29.000Z</time>
      </trkpt>
      <trkpt lat="45.75801" lon="6.03134">
        <ele>647.2</ele>
        <time>2000-01-01T01:58:39.000Z</time>
      </trkpt>
      <trkpt lat="45.75794" lon="6.0313">
        <ele>647.5</ele>
        <time>2000-01-01T01:58:49.000Z</time>
      </trkpt>
      <trkpt lat="45.75782" lon="6.03123">
        <ele>647</ele>
        <time>2000-01-01T01:58:59.000Z</time>
      </trkpt>
      <trkpt lat="45.75775" lon="6.03121">
        <ele>648.6</ele>
        <time>2000-01-01T01:59:09.000Z</time>
      </trkpt>
      <trkpt lat="45.75762" lon="6.03115">
        <ele>648</ele>
        <time>2000-01-01T01:59:19.000Z</time>
      </trkpt>
      <trkpt lat="45.7575" lon="6.0311">
        <ele>650</ele>
        <time>2000-01-01T01:59:29.000Z</time>
      </trkpt>
      <trkpt lat="45.75737" lon="6.03107">
        <ele>649</ele>
        <time>2000-01-01T01:59:39.000Z</time>
      </trkpt>
      <trkpt lat="45.75731" lon="6.03108">
        <ele>651.9</ele>
        <time>2000-01-01T01:59:49.000Z</time>
      </trkpt>
      <trkpt lat="45.75721" lon="6.03114">
        <ele>653.2</ele>
        <time>2000-01-01T01:59:59.000Z</time>
      </trkpt>
      <trkpt lat="45.75717" lon="6.03121">
        <ele>649</ele>
        <time>2000-01-01T02:00:09.000Z</time>
      </trkpt>
      <trkpt lat="45.75709" lon="6.03133">
        <ele>654.6</ele>
        <time>2000-01-01T02:00:19.000Z</time>
      </trkpt>
      <trkpt lat="45.75698" lon="6.03144">
        <ele>649</ele>
        <time>2000-01-01T02:00:29.000Z</time>
      </trkpt>
      <trkpt lat="45.75689" lon="6.03157">
        <ele>657.2</ele>
        <time>2000-01-01T02:00:39.000Z</time>
      </trkpt>
      <trkpt lat="45.75683" lon="6.03166">
        <ele>651</ele>
        <time>2000-01-01T02:00:49.000Z</time>
      </trkpt>
      <trkpt lat="45.75676" lon="6.03173">
        <ele>659.4</ele>
        <time>2000-01-01T02:00:59.000Z</time>
      </trkpt>
      <trkpt lat="45.75669" lon="6.03179">
        <ele>660.6</ele>
        <time>2000-01-01T02:01:09.000Z</time>
      </trkpt>
      <trkpt lat="45.75661" lon="6.03187">
        <ele>654</ele>
        <time>2000-01-01T02:01:19.000Z</time>
      </trkpt>
      <trkpt lat="45.75652" lon="6.03196">
        <ele>665.8</ele>
        <time>2000-01-01T02:01:29.000Z</time>
      </trkpt>
      <trkpt lat="45.75648" lon="6.03201">
        <ele>667</ele>
        <time>2000-01-01T02:01:39.000Z</time>
      </trkpt>
      <trkpt lat="45.75645" lon="6.03203">
        <ele>659</ele>
        <time>2000-01-01T02:01:49.000Z</time>
      </trkpt>
      <trkpt lat="45.75641" lon="6.03206">
        <ele>668.6</ele>
        <time>2000-01-01T02:01:59.000Z</time>
      </trkpt>
      <trkpt lat="45.7564" lon="6.03208">
        <ele>668.8</ele>
        <time>2000-01-01T02:02:09.000Z</time>
      </trkpt>
      <trkpt lat="45.75637" lon="6.03211">
        <ele>669.2</ele>
        <time>2000-01-01T02:02:19.000Z</time>
      </trkpt>
      <trkpt lat="45.75634" lon="6.03214">
        <ele>669.6</ele>
        <time>2000-01-01T02:02:29.000Z</time>
      </trkpt>
      <trkpt lat="45.75627" lon="6.03222">
        <ele>659</ele>
        <time>2000-01-01T02:02:39.000Z</time>
      </trkpt>
      <trkpt lat="45.75621" lon="6.03229">
        <ele>671.3</ele>
        <time>2000-01-01T02:02:49.000Z</time>
      </trkpt>
      <trkpt lat="45.75618" lon="6.03231">
        <ele>671.8</ele>
        <time>2000-01-01T02:02:59.000Z</time>
      </trkpt>
      <trkpt lat="45.75615" lon="6.03234">
        <ele>672.4</ele>
        <time>2000-01-01T02:03:09.000Z</time>
      </trkpt>
      <trkpt lat="45.75607" lon="6.03237">
        <ele>663</ele>
        <time>2000-01-01T02:03:19.000Z</time>
      </trkpt>
      <trkpt lat="45.75594" lon="6.03239">
        <ele>675.3</ele>
        <time>2000-01-01T02:03:29.000Z</time>
      </trkpt>
      <trkpt lat="45.75592" lon="6.03242">
        <ele>675.7</ele>
        <time>2000-01-01T02:03:39.000Z</time>
      </trkpt>
      <trkpt lat="45.75588" lon="6.03245">
        <ele>669</ele>
        <time>2000-01-01T02:03:49.000Z</time>
      </trkpt>
      <trkpt lat="45.75586" lon="6.0325">
        <ele>676.7</ele>
        <time>2000-01-01T02:03:59.000Z</time>
      </trkpt>
      <trkpt lat="45.75581" lon="6.03254">
        <ele>677.5</ele>
        <time>2000-01-01T02:04:09.000Z</time>
      </trkpt>
      <trkpt lat="45.75576" lon="6.03254">
        <ele>678</ele>
        <time>2000-01-01T02:04:19.000Z</time>
      </trkpt>
      <trkpt lat="45.7557" lon="6.03258">
        <ele>676</ele>
        <time>2000-01-01T02:04:29.000Z</time>
      </trkpt>
      <trkpt lat="45.75567" lon="6.03263">
        <ele>679.4</ele>
        <time>2000-01-01T02:04:39.000Z</time>
      </trkpt>
      <trkpt lat="45.75561" lon="6.03266">
        <ele>680.1</ele>
        <time>2000-01-01T02:04:49.000Z</time>
      </trkpt>
      <trkpt lat="45.75546" lon="6.0327">
        <ele>676</ele>
        <time>2000-01-01T02:04:59.000Z</time>
      </trkpt>
      <trkpt lat="45.75538" lon="6.03273">
        <ele>682.7</ele>
        <time>2000-01-01T02:05:09.000Z</time>
      </trkpt>
      <trkpt lat="45.75524" lon="6.03274">
        <ele>684</ele>
        <time>2000-01-01T02:05:19.000Z</time>
      </trkpt>
      <trkpt lat="45.75514" lon="6.03274">
        <ele>684.9</ele>
        <time>2000-01-01T02:05:29.000Z</time>
      </trkpt>
      <trkpt lat="45.75502" lon="6.03275">
        <ele>688</ele>
        <time>2000-01-01T02:05:39.000Z</time>
      </trkpt>
      <trkpt lat="45.75493" lon="6.03278">
        <ele>686.8</ele>
        <time>2000-01-01T02:05:49.000Z</time>
      </trkpt>
      <trkpt lat="45.75485" lon="6.03275">
        <ele>687.6</ele>
        <time>2000-01-01T02:05:59.000Z</time>
      </trkpt>
      <trkpt lat="45.75472" lon="6.03271">
        <ele>688</ele>
        <time>2000-01-01T02:06:09.000Z</time>
      </trkpt>
      <trkpt lat="45.75463" lon="6.03269">
        <ele>690</ele>
        <time>2000-01-01T02:06:19.000Z</time>
      </trkpt>
      <trkpt lat="45.75456" lon="6.03271">
        <ele>690.8</ele>
        <time>2000-01-01T02:06:29.000Z</time>
      </trkpt>
      <trkpt lat="45.75446" lon="6.03271">
        <ele>688</ele>
        <time>2000-01-01T02:06:39.000Z</time>
      </trkpt>
      <trkpt lat="45.75438" lon="6.0327">
        <ele>692.5</ele>
        <time>2000-01-01T02:06:49.000Z</time>
      </trkpt>
      <trkpt lat="45.75433" lon="6.0327">
        <ele>692.8</ele>
        <time>2000-01-01T02:06:59.000Z</time>
      </trkpt>
      <trkpt lat="45.75431" lon="6.03275">
        <ele>693</ele>
        <time>2000-01-01T02:07:09.000Z</time>
      </trkpt>
      <trkpt lat="45.75426" lon="6.03278">
        <ele>688</ele>
        <time>2000-01-01T02:07:19.000Z</time>
      </trkpt>
      <trkpt lat="45.75418" lon="6.03278">
        <ele>693.9</ele>
        <time>2000-01-01T02:07:29.000Z</time>
      </trkpt>
      <trkpt lat="45.75409" lon="6.03278">
        <ele>694</ele>
        <time>2000-01-01T02:07:39.000Z</time>
      </trkpt>
      <trkpt lat="45.75399" lon="6.03277">
        <ele>691</ele>
        <time>2000-01-01T02:07:49.000Z</time>
      </trkpt>
      <trkpt lat="45.75384" lon="6.03275">
        <ele>694.1</ele>
        <time>2000-01-01T02:07:59.000Z</time>
      </trkpt>
      <trkpt lat="45.75371" lon="6.03275">
        <ele>692</ele>
        <time>2000-01-01T02:08:09.000Z</time>
      </trkpt>
      <trkpt lat="45.75362" lon="6.03275">
        <ele>694.9</ele>
        <time>2000-01-01T02:08:19.000Z</time>
      </trkpt>
      <trkpt lat="45.75349" lon="6.03272">
        <ele>697</ele>
        <time>2000-01-01T02:08:29.000Z</time>
      </trkpt>
      <trkpt lat="45.75336" lon="6.03273">
        <ele>697.4</ele>
        <time>2000-01-01T02:08:39.000Z</time>
      </trkpt>
      <trkpt lat="45.75328" lon="6.03276">
        <ele>697</ele>
        <time>2000-01-01T02:08:49.000Z</time>
      </trkpt>
      <trkpt lat="45.75322" lon="6.03277">
        <ele>699.6</ele>
        <time>2000-01-01T02:08:59.000Z</time>
      </trkpt>
      <trkpt lat="45.75319" lon="6.03279">
        <ele>700.2</ele>
        <time>2000-01-01T02:09:09.000Z</time>
      </trkpt>
      <trkpt lat="45.75314" lon="6.03279">
        <ele>701</ele>
        <time>2000-01-01T02:09:19.000Z</time>
      </trkpt>
      <trkpt lat="45.75312" lon="6.03279">
        <ele>701.2</ele>
        <time>2000-01-01T02:09:29.000Z</time>
      </trkpt>
      <trkpt lat="45.75309" lon="6.03281">
        <ele>698</ele>
        <time>2000-01-01T02:09:39.000Z</time>
      </trkpt>
      <trkpt lat="45.75302" lon="6.03282">
        <ele>702.9</ele>
        <time>2000-01-01T02:09:49.000Z</time>
      </trkpt>
      <trkpt lat="45.75296" lon="6.03286">
        <ele>704.1</ele>
        <time>2000-01-01T02:09:59.000Z</time>
      </trkpt>
      <trkpt lat="45.75289" lon="6.03288">
        <ele>699</ele>
        <time>2000-01-01T02:10:09.000Z</time>
      </trkpt>
      <trkpt lat="45.7528" lon="6.0329">
        <ele>706.4</ele>
        <time>2000-01-01T02:10:19.000Z</time>
      </trkpt>
      <trkpt lat="45.75272" lon="6.03291">
        <ele>707.4</ele>
        <time>2000-01-01T02:10:29.000Z</time>
      </trkpt>
      <trkpt lat="45.75264" lon="6.03292">
        <ele>702</ele>
        <time>2000-01-01T02:10:39.000Z</time>
      </trkpt>
      <trkpt lat="45.7525" lon="6.03291">
        <ele>709.4</ele>
        <time>2000-01-01T02:10:49.000Z</time>
      </trkpt>
      <trkpt lat="45.75241" lon="6.03289">
        <ele>706</ele>
        <time>2000-01-01T02:10:59.000Z</time>
      </trkpt>
      <trkpt lat="45.75236" lon="6.03287">
        <ele>711.5</ele>
        <time>2000-01-01T02:11:09.000Z</time>
      </trkpt>
      <trkpt lat="45.75228" lon="6.03286">
        <ele>713</ele>
        <time>2000-01-01T02:11:19.000Z</time>
      </trkpt>
      <trkpt lat="45.7522" lon="6.03287">
        <ele>707</ele>
        <time>2000-01-01T02:11:29.000Z</time>
      </trkpt>
      <trkpt lat="45.75217" lon="6.03288">
        <ele>715.7</ele>
        <time>2000-01-01T02:11:39.000Z</time>
      </trkpt>
      <trkpt lat="45.75214" lon="6.0329">
        <ele>716.7</ele>
        <time>2000-01-01T02:11:49.000Z</time>
      </trkpt>
      <trkpt lat="45.75206" lon="6.03289">
        <ele>718.5</ele>
        <time>2000-01-01T02:11:59.000Z</time>
      </trkpt>
      <trkpt lat="45.75203" lon="6.03289">
        <ele>719.2</ele>
        <time>2000-01-01T02:12:09.000Z</time>
      </trkpt>
      <trkpt lat="45.75201" lon="6.0329">
        <ele>715</ele>
        <time>2000-01-01T02:12:19.000Z</time>
      </trkpt>
      <trkpt lat="45.752" lon="6.03293">
        <ele>720.4</ele>
        <time>2000-01-01T02:12:29.000Z</time>
      </trkpt>
      <trkpt lat="45.75203" lon="6.03288">
        <ele>719.1</ele>
        <time>2000-01-01T02:12:39.000Z</time>
      </trkpt>
      <trkpt lat="45.75205" lon="6.03285">
        <ele>718.2</ele>
        <time>2000-01-01T02:12:49.000Z</time>
      </trkpt>
      <trkpt lat="45.75209" lon="6.0327">
        <ele>715</ele>
        <time>2000-01-01T02:12:59.000Z</time>
      </trkpt>
      <trkpt lat="45.75213" lon="6.03251">
        <ele>712.8</ele>
        <time>2000-01-01T02:13:09.000Z</time>
      </trkpt>
      <trkpt lat="45.75217" lon="6.03232">
        <ele>715</ele>
        <time>2000-01-01T02:13:19.000Z</time>
      </trkpt>
      <trkpt lat="45.7522" lon="6.03216">
        <ele>709.2</ele>
        <time>2000-01-01T02:13:29.000Z</time>
      </trkpt>
      <trkpt lat="45.75224" lon="6.03202">
        <ele>714</ele>
        <time>2000-01-01T02:13:39.000Z</time>
      </trkpt>
      <trkpt lat="45.75228" lon="6.03191">
        <ele>707.3</ele>
        <time>2000-01-01T02:13:49.000Z</time>
      </trkpt>
      <trkpt lat="45.75233" lon="6.0318">
        <ele>706.5</ele>
        <time>2000-01-01T02:13:59.000Z</time>
      </trkpt>
      <trkpt lat="45.75238" lon="6.0317">
        <ele>713</ele>
        <time>2000-01-01T02:14:09.000Z</time>
      </trkpt>
      <trkpt lat="45.75242" lon="6.0316">
        <ele>705.2</ele>
        <time>2000-01-01T02:14:19.000Z</time>
      </trkpt>
      <trkpt lat="45.75246" lon="6.03151">
        <ele>704.3</ele>
        <time>2000-01-01T02:14:29.000Z</time>
      </trkpt>
      <trkpt lat="45.7525" lon="6.03142">
        <ele>702</ele>
        <time>2000-01-01T02:14:39.000Z</time>
      </trkpt>
      <trkpt lat="45.75254" lon="6.03131">
        <ele>702.4</ele>
        <time>2000-01-01T02:14:49.000Z</time>
      </trkpt>
      <trkpt lat="45.75258" lon="6.0312">
        <ele>701.6</ele>
        <time>2000-01-01T02:14:59.000Z</time>
      </trkpt>
      <trkpt lat="45.75266" lon="6.03103">
        <ele>702</ele>
        <time>2000-01-01T02:15:09.000Z</time>
      </trkpt>
      <trkpt lat="45.75271" lon="6.03094">
        <ele>699.8</ele>
        <time>2000-01-01T02:15:19.000Z</time>
      </trkpt>
      <trkpt lat="45.75276" lon="6.03085">
        <ele>699.1</ele>
        <time>2000-01-01T02:15:29.000Z</time>
      </trkpt>
      <trkpt lat="45.75281" lon="6.03075">
        <ele>697</ele>
        <time>2000-01-01T02:15:39.000Z</time>
      </trkpt>
      <trkpt lat="45.75289" lon="6.03057">
        <ele>694.8</ele>
        <time>2000-01-01T02:15:49.000Z</time>
      </trkpt>
      <trkpt lat="45.75295" lon="6.03048">
        <ele>693</ele>
        <time>2000-01-01T02:15:59.000Z</time>
      </trkpt>
      <trkpt lat="45.75302" lon="6.03038">
        <ele>694</ele>
        <time>2000-01-01T02:16:09.000Z</time>
      </trkpt>
      <trkpt lat="45.75308" lon="6.03028">
        <ele>688</ele>
        <time>2000-01-01T02:16:19.000Z</time>
      </trkpt>
      <trkpt lat="45.75313" lon="6.03018">
        <ele>693</ele>
        <time>2000-01-01T02:16:29.000Z</time>
      </trkpt>
      <trkpt lat="45.75321" lon="6.03007">
        <ele>686</ele>
        <time>2000-01-01T02:16:39.000Z</time>
      </trkpt>
      <trkpt lat="45.75328" lon="6.02996">
        <ele>691.4</ele>
        <time>2000-01-01T02:16:49.000Z</time>
      </trkpt>
      <trkpt lat="45.75335" lon="6.02987">
        <ele>686</ele>
        <time>2000-01-01T02:16:59.000Z</time>
      </trkpt>
      <trkpt lat="45.75342" lon="6.02977">
        <ele>689.2</ele>
        <time>2000-01-01T02:17:09.000Z</time>
      </trkpt>
      <trkpt lat="45.75348" lon="6.02967">
        <ele>686</ele>
        <time>2000-01-01T02:17:19.000Z</time>
      </trkpt>
      <trkpt lat="45.75355" lon="6.02957">
        <ele>687.1</ele>
        <time>2000-01-01T02:17:29.000Z</time>
      </trkpt>
      <trkpt lat="45.75361" lon="6.02948">
        <ele>686.1</ele>
        <time>2000-01-01T02:17:39.000Z</time>
      </trkpt>
      <trkpt lat="45.75368" lon="6.02938">
        <ele>681</ele>
        <time>2000-01-01T02:17:49.000Z</time>
      </trkpt>
      <trkpt lat="45.75373" lon="6.02931">
        <ele>684.2</ele>
        <time>2000-01-01T02:17:59.000Z</time>
      </trkpt>
      <trkpt lat="45.75372" lon="6.02916">
        <ele>683.6</ele>
        <time>2000-01-01T02:18:09.000Z</time>
      </trkpt>
      <trkpt lat="45.7536" lon="6.02903">
        <ele>675</ele>
        <time>2000-01-01T02:18:19.000Z</time>
      </trkpt>
      <trkpt lat="45.75351" lon="6.029">
        <ele>683.9</ele>
        <time>2000-01-01T02:18:29.000Z</time>
      </trkpt>
      <trkpt lat="45.75341" lon="6.02894">
        <ele>675.5</ele>
        <time>2000-01-01T02:18:39.000Z</time>
      </trkpt>
      <trkpt lat="45.75336" lon="6.02889">
        <ele>683.9</ele>
        <time>2000-01-01T02:18:49.000Z</time>
      </trkpt>
      <trkpt lat="45.75341" lon="6.02872">
        <ele>683.1</ele>
        <time>2000-01-01T02:18:59.000Z</time>
      </trkpt>
      <trkpt lat="45.75346" lon="6.02856">
        <ele>676</ele>
        <time>2000-01-01T02:19:09.000Z</time>
      </trkpt>
      <trkpt lat="45.75344" lon="6.0284">
        <ele>682.3</ele>
        <time>2000-01-01T02:19:19.000Z</time>
      </trkpt>
      <trkpt lat="45.7534" lon="6.02827">
        <ele>678</ele>
        <time>2000-01-01T02:19:29.000Z</time>
      </trkpt>
      <trkpt lat="45.75337" lon="6.02811">
        <ele>684.9</ele>
        <time>2000-01-01T02:19:39.000Z</time>
      </trkpt>
      <trkpt lat="45.75333" lon="6.02796">
        <ele>679</ele>
        <time>2000-01-01T02:19:49.000Z</time>
      </trkpt>
      <trkpt lat="45.75326" lon="6.02781">
        <ele>688.9</ele>
        <time>2000-01-01T02:19:59.000Z</time>
      </trkpt>
      <trkpt lat="45.75315" lon="6.02767">
        <ele>680</ele>
        <time>2000-01-01T02:20:09.000Z</time>
      </trkpt>
      <trkpt lat="45.75304" lon="6.02753">
        <ele>689.4</ele>
        <time>2000-01-01T02:20:19.000Z</time>
      </trkpt>
      <trkpt lat="45.75292" lon="6.02746">
        <ele>688</ele>
        <time>2000-01-01T02:20:29.000Z</time>
      </trkpt>
      <trkpt lat="45.75282" lon="6.02741">
        <ele>692</ele>
        <time>2000-01-01T02:20:39.000Z</time>
      </trkpt>
      <trkpt lat="45.75276" lon="6.02734">
        <ele>691.6</ele>
        <time>2000-01-01T02:20:49.000Z</time>
      </trkpt>
      <trkpt lat="45.75267" lon="6.02724">
        <ele>690</ele>
        <time>2000-01-01T02:20:59.000Z</time>
      </trkpt>
      <trkpt lat="45.75263" lon="6.02717">
        <ele>691.1</ele>
        <time>2000-01-01T02:21:09.000Z</time>
      </trkpt>
      <trkpt lat="45.75258" lon="6.02707">
        <ele>691.7</ele>
        <time>2000-01-01T02:21:19.000Z</time>
      </trkpt>
      <trkpt lat="45.75256" lon="6.02693">
        <ele>693</ele>
        <time>2000-01-01T02:21:29.000Z</time>
      </trkpt>
      <trkpt lat="45.75251" lon="6.0267">
        <ele>692.9</ele>
        <time>2000-01-01T02:21:39.000Z</time>
      </trkpt>
      <trkpt lat="45.75249" lon="6.02667">
        <ele>697</ele>
        <time>2000-01-01T02:21:49.000Z</time>
      </trkpt>
      <trkpt lat="45.75239" lon="6.02663">
        <ele>694.7</ele>
        <time>2000-01-01T02:21:59.000Z</time>
      </trkpt>
      <trkpt lat="45.75226" lon="6.02659">
        <ele>695.5</ele>
        <time>2000-01-01T02:22:09.000Z</time>
      </trkpt>
      <trkpt lat="45.75217" lon="6.02653">
        <ele>698.4</ele>
        <time>2000-01-01T02:22:19.000Z</time>
      </trkpt>
      <trkpt lat="45.75211" lon="6.02648">
        <ele>699.2</ele>
        <time>2000-01-01T02:22:29.000Z</time>
      </trkpt>
      <trkpt lat="45.75209" lon="6.02645">
        <ele>696.2</ele>
        <time>2000-01-01T02:22:39.000Z</time>
      </trkpt>
      <trkpt lat="45.752" lon="6.02641">
        <ele>700.4</ele>
        <time>2000-01-01T02:22:49.000Z</time>
      </trkpt>
      <trkpt lat="45.75193" lon="6.02641">
        <ele>701</ele>
        <time>2000-01-01T02:22:59.000Z</time>
      </trkpt>
      <trkpt lat="45.75188" lon="6.0264">
        <ele>697</ele>
        <time>2000-01-01T02:23:09.000Z</time>
      </trkpt>
      <trkpt lat="45.7518" lon="6.0264">
        <ele>702.5</ele>
        <time>2000-01-01T02:23:19.000Z</time>
      </trkpt>
      <trkpt lat="45.75166" lon="6.02636">
        <ele>697</ele>
        <time>2000-01-01T02:23:29.000Z</time>
      </trkpt>
      <trkpt lat="45.75152" lon="6.0263">
        <ele>705.4</ele>
        <time>2000-01-01T02:23:39.000Z</time>
      </trkpt>
      <trkpt lat="45.75143" lon="6.02627">
        <ele>697</ele>
        <time>2000-01-01T02:23:49.000Z</time>
      </trkpt>
      <trkpt lat="45.75135" lon="6.02624">
        <ele>707.3</ele>
        <time>2000-01-01T02:23:59.000Z</time>
      </trkpt>
      <trkpt lat="45.75129" lon="6.0262">
        <ele>708</ele>
        <time>2000-01-01T02:24:09.000Z</time>
      </trkpt>
      <trkpt lat="45.75116" lon="6.0261">
        <ele>701</ele>
        <time>2000-01-01T02:24:19.000Z</time>
      </trkpt>
      <trkpt lat="45.75103" lon="6.026">
        <ele>711</ele>
        <time>2000-01-01T02:24:29.000Z</time>
      </trkpt>
      <trkpt lat="45.75094" lon="6.0259">
        <ele>708</ele>
        <time>2000-01-01T02:24:39.000Z</time>
      </trkpt>
      <trkpt lat="45.75085" lon="6.02582">
        <ele>711.8</ele>
        <time>2000-01-01T02:24:49.000Z</time>
      </trkpt>
      <trkpt lat="45.75073" lon="6.02574">
        <ele>711</ele>
        <time>2000-01-01T02:24:59.000Z</time>
      </trkpt>
      <trkpt lat="45.75068" lon="6.02568">
        <ele>710.6</ele>
        <time>2000-01-01T02:25:09.000Z</time>
      </trkpt>
      <trkpt lat="45.75065" lon="6.02559">
        <ele>710.2</ele>
        <time>2000-01-01T02:25:19.000Z</time>
      </trkpt>
      <trkpt lat="45.75063" lon="6.02548">
        <ele>711</ele>
        <time>2000-01-01T02:25:29.000Z</time>
      </trkpt>
      <trkpt lat="45.75058" lon="6.02539">
        <ele>709.8</ele>
        <time>2000-01-01T02:25:39.000Z</time>
      </trkpt>
      <trkpt lat="45.75051" lon="6.0253">
        <ele>709.3</ele>
        <time>2000-01-01T02:25:49.000Z</time>
      </trkpt>
      <trkpt lat="45.75045" lon="6.02521">
        <ele>711</ele>
        <time>2000-01-01T02:25:59.000Z</time>
      </trkpt>
      <trkpt lat="45.75039" lon="6.02513">
        <ele>706.8</ele>
        <time>2000-01-01T02:26:09.000Z</time>
      </trkpt>
      <trkpt lat="45.75037" lon="6.02502">
        <ele>706.1</ele>
        <time>2000-01-01T02:26:19.000Z</time>
      </trkpt>
      <trkpt lat="45.75034" lon="6.02495">
        <ele>711.5</ele>
        <time>2000-01-01T02:26:29.000Z</time>
      </trkpt>
      <trkpt lat="45.75043" lon="6.02482">
        <ele>704.6</ele>
        <time>2000-01-01T02:26:39.000Z</time>
      </trkpt>
      <trkpt lat="45.75048" lon="6.02477">
        <ele>709.7</ele>
        <time>2000-01-01T02:26:49.000Z</time>
      </trkpt>
      <trkpt lat="45.75053" lon="6.02463">
        <ele>701.6</ele>
        <time>2000-01-01T02:26:59.000Z</time>
      </trkpt>
      <trkpt lat="45.75052" lon="6.02452">
        <ele>699.9</ele>
        <time>2000-01-01T02:27:09.000Z</time>
      </trkpt>
      <trkpt lat="45.75053" lon="6.02439">
        <ele>708</ele>
        <time>2000-01-01T02:27:19.000Z</time>
      </trkpt>
      <trkpt lat="45.75054" lon="6.02423">
        <ele>693.8</ele>
        <time>2000-01-01T02:27:29.000Z</time>
      </trkpt>
      <trkpt lat="45.75052" lon="6.02412">
        <ele>691.8</ele>
        <time>2000-01-01T02:27:39.000Z</time>
      </trkpt>
      <trkpt lat="45.75046" lon="6.02402">
        <ele>708</ele>
        <time>2000-01-01T02:27:49.000Z</time>
      </trkpt>
      <trkpt lat="45.75042" lon="6.02393">
        <ele>689.5</ele>
        <time>2000-01-01T02:27:59.000Z</time>
      </trkpt>
      <trkpt lat="45.75038" lon="6.02384">
        <ele>688</ele>
        <time>2000-01-01T02:28:09.000Z</time>
      </trkpt>
      <trkpt lat="45.75033" lon="6.02374">
        <ele>693</ele>
        <time>2000-01-01T02:28:19.000Z</time>
      </trkpt>
      <trkpt lat="45.75029" lon="6.0236">
        <ele>683.2</ele>
        <time>2000-01-01T02:28:29.000Z</time>
      </trkpt>
      <trkpt lat="45.75026" lon="6.02345">
        <ele>688</ele>
        <time>2000-01-01T02:28:39.000Z</time>
      </trkpt>
      <trkpt lat="45.75017" lon="6.02332">
        <ele>675.5</ele>
        <time>2000-01-01T02:28:49.000Z</time>
      </trkpt>
      <trkpt lat="45.75009" lon="6.02326">
        <ele>687.5</ele>
        <time>2000-01-01T02:28:59.000Z</time>
      </trkpt>
      <trkpt lat="45.75003" lon="6.02316">
        <ele>672.8</ele>
        <time>2000-01-01T02:29:09.000Z</time>
      </trkpt>
      <trkpt lat="45.74997" lon="6.02309">
        <ele>671.3</ele>
        <time>2000-01-01T02:29:19.000Z</time>
      </trkpt>
      <trkpt lat="45.7499" lon="6.02301">
        <ele>687</ele>
        <time>2000-01-01T02:29:29.000Z</time>
      </trkpt>
      <trkpt lat="45.74986" lon="6.02287">
        <ele>665</ele>
        <time>2000-01-01T02:29:39.000Z</time>
      </trkpt>
      <trkpt lat="45.74986" lon="6.02272">
        <ele>682</ele>
        <time>2000-01-01T02:29:49.000Z</time>
      </trkpt>
      <trkpt lat="45.74989" lon="6.02264">
        <ele>658.5</ele>
        <time>2000-01-01T02:29:59.000Z</time>
      </trkpt>
      <trkpt lat="45.74992" lon="6.02259">
        <ele>657</ele>
        <time>2000-01-01T02:30:09.000Z</time>
      </trkpt>
      <trkpt lat="45.74997" lon="6.02257">
        <ele>656.1</ele>
        <time>2000-01-01T02:30:19.000Z</time>
      </trkpt>
      <trkpt lat="45.75001" lon="6.02257">
        <ele>676</ele>
        <time>2000-01-01T02:30:29.000Z</time>
      </trkpt>
      <trkpt lat="45.75011" lon="6.02251">
        <ele>652.3</ele>
        <time>2000-01-01T02:30:39.000Z</time>
      </trkpt>
      <trkpt lat="45.75023" lon="6.02246">
        <ele>664</ele>
        <time>2000-01-01T02:30:49.000Z</time>
      </trkpt>
      <trkpt lat="45.75034" lon="6.02247">
        <ele>647.1</ele>
        <time>2000-01-01T02:30:59.000Z</time>
      </trkpt>
      <trkpt lat="45.75042" lon="6.02244">
        <ele>663</ele>
        <time>2000-01-01T02:31:09.000Z</time>
      </trkpt>
      <trkpt lat="45.75045" lon="6.02239">
        <ele>642.6</ele>
        <time>2000-01-01T02:31:19.000Z</time>
      </trkpt>
      <trkpt lat="45.75053" lon="6.02234">
        <ele>639.4</ele>
        <time>2000-01-01T02:31:29.000Z</time>
      </trkpt>
      <trkpt lat="45.75063" lon="6.02228">
        <ele>652</ele>
        <time>2000-01-01T02:31:39.000Z</time>
      </trkpt>
      <trkpt lat="45.75073" lon="6.02224">
        <ele>635.5</ele>
        <time>2000-01-01T02:31:49.000Z</time>
      </trkpt>
      <trkpt lat="45.75083" lon="6.02219">
        <ele>642</ele>
        <time>2000-01-01T02:31:59.000Z</time>
      </trkpt>
      <trkpt lat="45.75094" lon="6.02219">
        <ele>633.4</ele>
        <time>2000-01-01T02:32:09.000Z</time>
      </trkpt>
      <trkpt lat="45.75098" lon="6.02221">
        <ele>633.3</ele>
        <time>2000-01-01T02:32:19.000Z</time>
      </trkpt>
      <trkpt lat="45.75106" lon="6.0222">
        <ele>636</ele>
        <time>2000-01-01T02:32:29.000Z</time>
      </trkpt>
      <trkpt lat="45.75116" lon="6.02219">
        <ele>631.2</ele>
        <time>2000-01-01T02:32:39.000Z</time>
      </trkpt>
      <trkpt lat="45.75129" lon="6.02207">
        <ele>631</ele>
        <time>2000-01-01T02:32:49.000Z</time>
      </trkpt>
      <trkpt lat="45.75145" lon="6.02194">
        <ele>628</ele>
        <time>2000-01-01T02:32:59.000Z</time>
      </trkpt>
      <trkpt lat="45.75158" lon="6.02182">
        <ele>627.7</ele>
        <time>2000-01-01T02:33:09.000Z</time>
      </trkpt>
      <trkpt lat="45.75169" lon="6.0218">
        <ele>628</ele>
        <time>2000-01-01T02:33:19.000Z</time>
      </trkpt>
      <trkpt lat="45.75178" lon="6.0218">
        <ele>626.6</ele>
        <time>2000-01-01T02:33:29.000Z</time>
      </trkpt>
      <trkpt lat="45.75194" lon="6.02182">
        <ele>627</ele>
        <time>2000-01-01T02:33:39.000Z</time>
      </trkpt>
      <trkpt lat="45.75201" lon="6.02188">
        <ele>624.9</ele>
        <time>2000-01-01T02:33:49.000Z</time>
      </trkpt>
      <trkpt lat="45.75208" lon="6.02192">
        <ele>624.3</ele>
        <time>2000-01-01T02:33:59.000Z</time>
      </trkpt>
      <trkpt lat="45.75218" lon="6.02195">
        <ele>626</ele>
        <time>2000-01-01T02:34:09.000Z</time>
      </trkpt>
      <trkpt lat="45.75227" lon="6.022">
        <ele>623.9</ele>
        <time>2000-01-01T02:34:19.000Z</time>
      </trkpt>
      <trkpt lat="45.75235" lon="6.02203">
        <ele>623.9</ele>
        <time>2000-01-01T02:34:29.000Z</time>
      </trkpt>
      <trkpt lat="45.75244" lon="6.02205">
        <ele>625</ele>
        <time>2000-01-01T02:34:39.000Z</time>
      </trkpt>
      <trkpt lat="45.75253" lon="6.02206">
        <ele>623.6</ele>
        <time>2000-01-01T02:34:49.000Z</time>
      </trkpt>
      <trkpt lat="45.75261" lon="6.02208">
        <ele>623.1</ele>
        <time>2000-01-01T02:34:59.000Z</time>
      </trkpt>
      <trkpt lat="45.7527" lon="6.0221">
        <ele>618</ele>
        <time>2000-01-01T02:35:09.000Z</time>
      </trkpt>
      <trkpt lat="45.75278" lon="6.02214">
        <ele>621.9</ele>
        <time>2000-01-01T02:35:19.000Z</time>
      </trkpt>
      <trkpt lat="45.75285" lon="6.02217">
        <ele>621</ele>
        <time>2000-01-01T02:35:29.000Z</time>
      </trkpt>
      <trkpt lat="45.75296" lon="6.02218">
        <ele>618</ele>
        <time>2000-01-01T02:35:39.000Z</time>
      </trkpt>
      <trkpt lat="45.75306" lon="6.02221">
        <ele>619.1</ele>
        <time>2000-01-01T02:35:49.000Z</time>
      </trkpt>
      <trkpt lat="45.75316" lon="6.02231">
        <ele>621</ele>
        <time>2000-01-01T02:35:59.000Z</time>
      </trkpt>
      <trkpt lat="45.75322" lon="6.02248">
        <ele>616.4</ele>
        <time>2000-01-01T02:36:09.000Z</time>
      </trkpt>
      <trkpt lat="45.7533" lon="6.02266">
        <ele>621</ele>
        <time>2000-01-01T02:36:19.000Z</time>
      </trkpt>
      <trkpt lat="45.75333" lon="6.02276">
        <ele>616.9</ele>
        <time>2000-01-01T02:36:29.000Z</time>
      </trkpt>
      <trkpt lat="45.75338" lon="6.02294">
        <ele>621.5</ele>
        <time>2000-01-01T02:36:39.000Z</time>
      </trkpt>
      <trkpt lat="45.75338" lon="6.02301">
        <ele>617.3</ele>
        <time>2000-01-01T02:36:49.000Z</time>
      </trkpt>
      <trkpt lat="45.75336" lon="6.02309">
        <ele>617.9</ele>
        <time>2000-01-01T02:36:59.000Z</time>
      </trkpt>
      <trkpt lat="45.75343" lon="6.02323">
        <ele>622</ele>
        <time>2000-01-01T02:37:09.000Z</time>
      </trkpt>
      <trkpt lat="45.75352" lon="6.02333">
        <ele>616.6</ele>
        <time>2000-01-01T02:37:19.000Z</time>
      </trkpt>
      <trkpt lat="45.75362" lon="6.02339">
        <ele>622</ele>
        <time>2000-01-01T02:37:29.000Z</time>
      </trkpt>
      <trkpt lat="45.75373" lon="6.02348">
        <ele>613.6</ele>
        <time>2000-01-01T02:37:39.000Z</time>
      </trkpt>
      <trkpt lat="45.75384" lon="6.02357">
        <ele>624.5</ele>
        <time>2000-01-01T02:37:49.000Z</time>
      </trkpt>
      <trkpt lat="45.75392" lon="6.02365">
        <ele>612.2</ele>
        <time>2000-01-01T02:37:59.000Z</time>
      </trkpt>
      <trkpt lat="45.754" lon="6.02372">
        <ele>612.1</ele>
        <time>2000-01-01T02:38:09.000Z</time>
      </trkpt>
      <trkpt lat="45.75406" lon="6.02377">
        <ele>621.7</ele>
        <time>2000-01-01T02:38:19.000Z</time>
      </trkpt>
      <trkpt lat="45.75413" lon="6.02383">
        <ele>611.2</ele>
        <time>2000-01-01T02:38:29.000Z</time>
      </trkpt>
      <trkpt lat="45.75419" lon="6.02389">
        <ele>610.6</ele>
        <time>2000-01-01T02:38:39.000Z</time>
      </trkpt>
      <trkpt lat="45.75429" lon="6.02393">
        <ele>619</ele>
        <time>2000-01-01T02:38:49.000Z</time>
      </trkpt>
      <trkpt lat="45.7544" lon="6.02399">
        <ele>607.9</ele>
        <time>2000-01-01T02:38:59.000Z</time>
      </trkpt>
      <trkpt lat="45.75447" lon="6.02405">
        <ele>619</ele>
        <time>2000-01-01T02:39:09.000Z</time>
      </trkpt>
      <trkpt lat="45.75459" lon="6.02416">
        <ele>606.3</ele>
        <time>2000-01-01T02:39:19.000Z</time>
      </trkpt>
      <trkpt lat="45.75466" lon="6.02423">
        <ele>616</ele>
        <time>2000-01-01T02:39:29.000Z</time>
      </trkpt>
      <trkpt lat="45.75479" lon="6.02432">
        <ele>605.3</ele>
        <time>2000-01-01T02:39:39.000Z</time>
      </trkpt>
      <trkpt lat="45.75483" lon="6.02438">
        <ele>614</ele>
        <time>2000-01-01T02:39:49.000Z</time>
      </trkpt>
      <trkpt lat="45.75488" lon="6.02445">
        <ele>605.8</ele>
        <time>2000-01-01T02:39:59.000Z</time>
      </trkpt>
      <trkpt lat="45.75501" lon="6.02448">
        <ele>612</ele>
        <time>2000-01-01T02:40:09.000Z</time>
      </trkpt>
      <trkpt lat="45.75516" lon="6.0245">
        <ele>603.1</ele>
        <time>2000-01-01T02:40:19.000Z</time>
      </trkpt>
      <trkpt lat="45.75529" lon="6.02449">
        <ele>606</ele>
        <time>2000-01-01T02:40:29.000Z</time>
      </trkpt>
      <trkpt lat="45.75536" lon="6.02452">
        <ele>601.8</ele>
        <time>2000-01-01T02:40:39.000Z</time>
      </trkpt>
      <trkpt lat="45.75549" lon="6.02448">
        <ele>604</ele>
        <time>2000-01-01T02:40:49.000Z</time>
      </trkpt>
      <trkpt lat="45.75559" lon="6.02439">
        <ele>599.4</ele>
        <time>2000-01-01T02:40:59.000Z</time>
      </trkpt>
      <trkpt lat="45.75566" lon="6.02434">
        <ele>604</ele>
        <time>2000-01-01T02:41:09.000Z</time>
      </trkpt>
      <trkpt lat="45.75569" lon="6.02434">
        <ele>598.9</ele>
        <time>2000-01-01T02:41:19.000Z</time>
      </trkpt>
      <trkpt lat="45.75571" lon="6.02438">
        <ele>599.3</ele>
        <time>2000-01-01T02:41:29.000Z</time>
      </trkpt>
      <trkpt lat="45.75578" lon="6.02441">
        <ele>599.6</ele>
        <time>2000-01-01T02:41:39.000Z</time>
      </trkpt>
      <trkpt lat="45.75583" lon="6.02443">
        <ele>599.8</ele>
        <time>2000-01-01T02:41:49.000Z</time>
      </trkpt>
      <trkpt lat="45.7559" lon="6.02449">
        <ele>604</ele>
        <time>2000-01-01T02:41:59.000Z</time>
      </trkpt>
      <trkpt lat="45.75597" lon="6.02455">
        <ele>601.1</ele>
        <time>2000-01-01T02:42:09.000Z</time>
      </trkpt>
      <trkpt lat="45.7561" lon="6.0246">
        <ele>607</ele>
        <time>2000-01-01T02:42:19.000Z</time>
      </trkpt>
      <trkpt lat="45.75616" lon="6.02461">
        <ele>601.6</ele>
        <time>2000-01-01T02:42:29.000Z</time>
      </trkpt>
      <trkpt lat="45.75624" lon="6.02462">
        <ele>601.4</ele>
        <time>2000-01-01T02:42:39.000Z</time>
      </trkpt>
      <trkpt lat="45.75639" lon="6.02466">
        <ele>605</ele>
        <time>2000-01-01T02:42:49.000Z</time>
      </trkpt>
      <trkpt lat="45.75647" lon="6.0247">
        <ele>601.2</ele>
        <time>2000-01-01T02:42:59.000Z</time>
      </trkpt>
      <trkpt lat="45.75661" lon="6.02476">
        <ele>603</ele>
        <time>2000-01-01T02:43:09.000Z</time>
      </trkpt>
      <trkpt lat="45.75669" lon="6.02484">
        <ele>600.5</ele>
        <time>2000-01-01T02:43:19.000Z</time>
      </trkpt>
      <trkpt lat="45.75677" lon="6.025">
        <ele>603</ele>
        <time>2000-01-01T02:43:29.000Z</time>
      </trkpt>
      <trkpt lat="45.75684" lon="6.02508">
        <ele>600.9</ele>
        <time>2000-01-01T02:43:39.000Z</time>
      </trkpt>
      <trkpt lat="45.75692" lon="6.02514">
        <ele>600.7</ele>
        <time>2000-01-01T02:43:49.000Z</time>
      </trkpt>
      <trkpt lat="45.757" lon="6.02519">
        <ele>603.5</ele>
        <time>2000-01-01T02:43:59.000Z</time>
      </trkpt>
      <trkpt lat="45.75705" lon="6.02528">
        <ele>600.5</ele>
        <time>2000-01-01T02:44:09.000Z</time>
      </trkpt>
      <trkpt lat="45.75712" lon="6.02536">
        <ele>600.3</ele>
        <time>2000-01-01T02:44:19.000Z</time>
      </trkpt>
      <trkpt lat="45.75719" lon="6.02543">
        <ele>602.2</ele>
        <time>2000-01-01T02:44:29.000Z</time>
      </trkpt>
      <trkpt lat="45.75728" lon="6.0255">
        <ele>599.7</ele>
        <time>2000-01-01T02:44:39.000Z</time>
      </trkpt>
      <trkpt lat="45.75734" lon="6.02553">
        <ele>599.4</ele>
        <time>2000-01-01T02:44:49.000Z</time>
      </trkpt>
      <trkpt lat="45.75744" lon="6.02555">
        <ele>601</ele>
        <time>2000-01-01T02:44:59.000Z</time>
      </trkpt>
      <trkpt lat="45.75752" lon="6.02556">
        <ele>597.9</ele>
        <time>2000-01-01T02:45:09.000Z</time>
      </trkpt>
      <trkpt lat="45.75758" lon="6.02558">
        <ele>597.7</ele>
        <time>2000-01-01T02:45:19.000Z</time>
      </trkpt>
      <trkpt lat="45.75772" lon="6.02571">
        <ele>599.5</ele>
        <time>2000-01-01T02:45:29.000Z</time>
      </trkpt>
      <trkpt lat="45.75779" lon="6.02578">
        <ele>598.4</ele>
        <time>2000-01-01T02:45:39.000Z</time>
      </trkpt>
      <trkpt lat="45.75785" lon="6.02587">
        <ele>599.1</ele>
        <time>2000-01-01T02:45:49.000Z</time>
      </trkpt>
      <trkpt lat="45.75793" lon="6.02595">
        <ele>598</ele>
        <time>2000-01-01T02:45:59.000Z</time>
      </trkpt>
      <trkpt lat="45.75802" lon="6.026">
        <ele>599.4</ele>
        <time>2000-01-01T02:46:09.000Z</time>
      </trkpt>
      <trkpt lat="45.75811" lon="6.02607">
        <ele>598.5</ele>
        <time>2000-01-01T02:46:19.000Z</time>
      </trkpt>
      <trkpt lat="45.75821" lon="6.02614">
        <ele>599.7</ele>
        <time>2000-01-01T02:46:29.000Z</time>
      </trkpt>
      <trkpt lat="45.75827" lon="6.02622">
        <ele>599</ele>
        <time>2000-01-01T02:46:39.000Z</time>
      </trkpt>
      <trkpt lat="45.75837" lon="6.02634">
        <ele>600.6</ele>
        <time>2000-01-01T02:46:49.000Z</time>
      </trkpt>
      <trkpt lat="45.75844" lon="6.02639">
        <ele>599</ele>
        <time>2000-01-01T02:46:59.000Z</time>
      </trkpt>
      <trkpt lat="45.75851" lon="6.02648">
        <ele>601.2</ele>
        <time>2000-01-01T02:47:09.000Z</time>
      </trkpt>
      <trkpt lat="45.75854" lon="6.02664">
        <ele>599</ele>
        <time>2000-01-01T02:47:19.000Z</time>
      </trkpt>
      <trkpt lat="45.75859" lon="6.02671">
        <ele>601.2</ele>
        <time>2000-01-01T02:47:29.000Z</time>
      </trkpt>
      <trkpt lat="45.7586" lon="6.02671">
        <ele>601.1</ele>
        <time>2000-01-01T02:47:39.000Z</time>
      </trkpt>
      <trkpt lat="45.7586" lon="6.02676">
        <ele>601.1</ele>
        <time>2000-01-01T02:47:59.000Z</time>
      </trkpt>
      <trkpt lat="45.75866" lon="6.02686">
        <ele>595</ele>
        <time>2000-01-01T02:48:09.000Z</time>
      </trkpt>
      <trkpt lat="45.75877" lon="6.02695">
        <ele>600.4</ele>
        <time>2000-01-01T02:48:19.000Z</time>
      </trkpt>
      <trkpt lat="45.75888" lon="6.02704">
        <ele>594</ele>
        <time>2000-01-01T02:48:29.000Z</time>
      </trkpt>
      <trkpt lat="45.75897" lon="6.02715">
        <ele>597.8</ele>
        <time>2000-01-01T02:48:39.000Z</time>
      </trkpt>
      <trkpt lat="45.75906" lon="6.02725">
        <ele>594</ele>
        <time>2000-01-01T02:48:49.000Z</time>
      </trkpt>
      <trkpt lat="45.75915" lon="6.02728">
        <ele>594.9</ele>
        <time>2000-01-01T02:48:59.000Z</time>
      </trkpt>
      <trkpt lat="45.75924" lon="6.02723">
        <ele>594</ele>
        <time>2000-01-01T02:49:09.000Z</time>
      </trkpt>
      <trkpt lat="45.75933" lon="6.02718">
        <ele>591</ele>
        <time>2000-01-01T02:49:19.000Z</time>
      </trkpt>
      <trkpt lat="45.75942" lon="6.02713">
        <ele>594</ele>
        <time>2000-01-01T02:49:29.000Z</time>
      </trkpt>
      <trkpt lat="45.75953" lon="6.02707">
        <ele>587.5</ele>
        <time>2000-01-01T02:49:39.000Z</time>
      </trkpt>
      <trkpt lat="45.75961" lon="6.02702">
        <ele>591</ele>
        <time>2000-01-01T02:49:49.000Z</time>
      </trkpt>
      <trkpt lat="45.75973" lon="6.02691">
        <ele>583.7</ele>
        <time>2000-01-01T02:49:59.000Z</time>
      </trkpt>
      <trkpt lat="45.75981" lon="6.02686">
        <ele>580</ele>
        <time>2000-01-01T02:50:09.000Z</time>
      </trkpt>
      <trkpt lat="45.75991" lon="6.02683">
        <ele>579.7</ele>
        <time>2000-01-01T02:50:19.000Z</time>
      </trkpt>
      <trkpt lat="45.76001" lon="6.02684">
        <ele>580</ele>
        <time>2000-01-01T02:50:29.000Z</time>
      </trkpt>
      <trkpt lat="45.76008" lon="6.02679">
        <ele>575.7</ele>
        <time>2000-01-01T02:50:39.000Z</time>
      </trkpt>
      <trkpt lat="45.76014" lon="6.02669">
        <ele>573.3</ele>
        <time>2000-01-01T02:50:49.000Z</time>
      </trkpt>
      <trkpt lat="45.76021" lon="6.02658">
        <ele>573</ele>
        <time>2000-01-01T02:50:59.000Z</time>
      </trkpt>
      <trkpt lat="45.76032" lon="6.0265">
        <ele>567.5</ele>
        <time>2000-01-01T02:51:09.000Z</time>
      </trkpt>
      <trkpt lat="45.76045" lon="6.02649">
        <ele>565</ele>
        <time>2000-01-01T02:51:19.000Z</time>
      </trkpt>
      <trkpt lat="45.76057" lon="6.0265">
        <ele>563.6</ele>
        <time>2000-01-01T02:51:29.000Z</time>
      </trkpt>
      <trkpt lat="45.76067" lon="6.02655">
        <ele>564.5</ele>
        <time>2000-01-01T02:51:39.000Z</time>
      </trkpt>
      <trkpt lat="45.76076" lon="6.02663">
        <ele>561.8</ele>
        <time>2000-01-01T02:51:49.000Z</time>
      </trkpt>
      <trkpt lat="45.76083" lon="6.02673">
        <ele>564</ele>
        <time>2000-01-01T02:51:59.000Z</time>
      </trkpt>
      <trkpt lat="45.76091" lon="6.02682">
        <ele>561.1</ele>
        <time>2000-01-01T02:52:09.000Z</time>
      </trkpt>
      <trkpt lat="45.76099" lon="6.02689">
        <ele>560</ele>
        <time>2000-01-01T02:52:19.000Z</time>
      </trkpt>
      <trkpt lat="45.76108" lon="6.02693">
        <ele>559.4</ele>
        <time>2000-01-01T02:52:29.000Z</time>
      </trkpt>
      <trkpt lat="45.76116" lon="6.02697">
        <ele>558.6</ele>
        <time>2000-01-01T02:52:39.000Z</time>
      </trkpt>
      <trkpt lat="45.76125" lon="6.02699">
        <ele>554</ele>
        <time>2000-01-01T02:52:49.000Z</time>
      </trkpt>
      <trkpt lat="45.76135" lon="6.02697">
        <ele>556.5</ele>
        <time>2000-01-01T02:52:59.000Z</time>
      </trkpt>
      <trkpt lat="45.76145" lon="6.02694">
        <ele>554</ele>
        <time>2000-01-01T02:53:09.000Z</time>
      </trkpt>
      <trkpt lat="45.76155" lon="6.02692">
        <ele>554.8</ele>
        <time>2000-01-01T02:53:19.000Z</time>
      </trkpt>
      <trkpt lat="45.76164" lon="6.02693">
        <ele>554</ele>
        <time>2000-01-01T02:53:29.000Z</time>
      </trkpt>
      <trkpt lat="45.76173" lon="6.02695">
        <ele>553.5</ele>
        <time>2000-01-01T02:53:39.000Z</time>
      </trkpt>
      <trkpt lat="45.76183" lon="6.02696">
        <ele>552.8</ele>
        <time>2000-01-01T02:53:49.000Z</time>
      </trkpt>
      <trkpt lat="45.76192" lon="6.02699">
        <ele>557</ele>
        <time>2000-01-01T02:53:59.000Z</time>
      </trkpt>
      <trkpt lat="45.762" lon="6.02704">
        <ele>551.8</ele>
        <time>2000-01-01T02:54:09.000Z</time>
      </trkpt>
      <trkpt lat="45.76209" lon="6.02707">
        <ele>551.5</ele>
        <time>2000-01-01T02:54:19.000Z</time>
      </trkpt>
      <trkpt lat="45.76218" lon="6.02711">
        <ele>556.5</ele>
        <time>2000-01-01T02:54:29.000Z</time>
      </trkpt>
      <trkpt lat="45.76228" lon="6.02713">
        <ele>550.7</ele>
        <time>2000-01-01T02:54:39.000Z</time>
      </trkpt>
      <trkpt lat="45.76236" lon="6.0271">
        <ele>550.2</ele>
        <time>2000-01-01T02:54:49.000Z</time>
      </trkpt>
      <trkpt lat="45.76244" lon="6.02705">
        <ele>556.7</ele>
        <time>2000-01-01T02:54:59.000Z</time>
      </trkpt>
      <trkpt lat="45.76253" lon="6.027">
        <ele>549.9</ele>
        <time>2000-01-01T02:55:09.000Z</time>
      </trkpt>
      <trkpt lat="45.76266" lon="6.027">
        <ele>557</ele>
        <time>2000-01-01T02:55:19.000Z</time>
      </trkpt>
      <trkpt lat="45.76274" lon="6.02709">
        <ele>549.9</ele>
        <time>2000-01-01T02:55:29.000Z</time>
      </trkpt>
      <trkpt lat="45.76284" lon="6.0272">
        <ele>556.5</ele>
        <time>2000-01-01T02:55:39.000Z</time>
      </trkpt>
      <trkpt lat="45.76291" lon="6.02729">
        <ele>549.6</ele>
        <time>2000-01-01T02:55:49.000Z</time>
      </trkpt>
      <trkpt lat="45.76297" lon="6.02738">
        <ele>549.4</ele>
        <time>2000-01-01T02:55:59.000Z</time>
      </trkpt>
      <trkpt lat="45.76303" lon="6.0275">
        <ele>556</ele>
        <time>2000-01-01T02:56:09.000Z</time>
      </trkpt>
      <trkpt lat="45.76311" lon="6.0276">
        <ele>548.5</ele>
        <time>2000-01-01T02:56:19.000Z</time>
      </trkpt>
      <trkpt lat="45.76318" lon="6.02769">
        <ele>552</ele>
        <time>2000-01-01T02:56:29.000Z</time>
      </trkpt>
      <trkpt lat="45.76324" lon="6.02778">
        <ele>547.7</ele>
        <time>2000-01-01T02:56:39.000Z</time>
      </trkpt>
      <trkpt lat="45.76332" lon="6.02786">
        <ele>547.4</ele>
        <time>2000-01-01T02:56:49.000Z</time>
      </trkpt>
      <trkpt lat="45.76336" lon="6.02793">
        <ele>550</ele>
        <time>2000-01-01T02:56:59.000Z</time>
      </trkpt>
      <trkpt lat="45.76336" lon="6.02798">
        <ele>546.7</ele>
        <time>2000-01-01T02:57:09.000Z</time>
      </trkpt>
      <trkpt lat="45.76337" lon="6.028">
        <ele>546.6</ele>
        <time>2000-01-01T02:57:19.000Z</time>
      </trkpt>
      <trkpt lat="45.76339" lon="6.02808">
        <ele>546.1</ele>
        <time>2000-01-01T02:57:29.000Z</time>
      </trkpt>
      <trkpt lat="45.76341" lon="6.02814">
        <ele>545.9</ele>
        <time>2000-01-01T02:57:39.000Z</time>
      </trkpt>
      <trkpt lat="45.76342" lon="6.02817">
        <ele>545.8</ele>
        <time>2000-01-01T02:57:49.000Z</time>
      </trkpt>
      <trkpt lat="45.76342" lon="6.02829">
        <ele>549</ele>
        <time>2000-01-01T02:58:09.000Z</time>
      </trkpt>
    </trkseg>
  </trk>
</gpx>